Time,TemperatureF,DewpointF,PressureIn,WindDirection,WindDirectionDegrees,WindSpeedMPH,WindSpeedGustMPH,Humidity,HourlyPrecipIn,Conditions,Clouds,dailyrainin,SoftwareType,DateUTC
2013-10-09 00:00:00,43.9,41.1,29.56,SE,145,0.0,0.0,90,0.00,,---,0.16,VWS V13.01,2013-10-09 07:00:00,
2013-10-09 00:01:00,43.9,41.1,29.56,SE,145,0.0,0.0,90,0.00,,---,0.00,VWS V13.01,2013-10-09 07:01:00,
2013-10-09 00:03:00,43.9,41.1,29.56,SE,145,0.0,0.0,90,0.00,,---,0.00,VWS V13.01,2013-10-09 07:03:00,
2013-10-09 00:04:00,43.9,41.1,29.56,SE,145,0.0,0.0,90,0.00,,---,0.00,VWS V13.01,2013-10-09 07:04:00,
2013-10-09 00:05:00,43.9,41.1,29.56,SE,145,0.0,0.0,90,0.00,,---,0.00,VWS V13.01,2013-10-09 07:05:00,
2013-10-09 00:06:00,43.7,41.0,29.56,SE,145,0.0,0.0,90,0.00,,---,0.00,VWS V13.01,2013-10-09 07:06:00,
2013-10-09 00:08:00,43.5,40.8,29.56,SE,145,0.0,0.0,90,0.00,,---,0.00,VWS V13.01,2013-10-09 07:08:00,
2013-10-09 00:09:00,43.5,40.8,29.56,SE,145,0.0,0.0,90,0.00,,---,0.00,VWS V13.01,2013-10-09 07:09:00,
2013-10-09 00:10:00,43.5,40.8,29.56,SE,145,0.0,0.0,90,0.00,,---,0.00,VWS V13.01,2013-10-09 07:10:00,
2013-10-09 00:11:00,43.5,40.8,29.56,SE,145,0.0,0.0,90,0.00,,---,0.00,VWS V13.01,2013-10-09 07:11:00,
2013-10-09 00:13:00,43.5,40.8,29.56,SE,145,0.0,0.0,90,0.00,,---,0.00,VWS V13.01,2013-10-09 07:13:00,
2013-10-09 00:14:00,43.5,40.8,29.56,SE,145,0.0,0.0,90,0.00,,---,0.00,VWS V13.01,2013-10-09 07:14:00,
2013-10-09 00:15:00,43.5,40.8,29.56,SE,145,0.0,0.0,90,0.00,,---,0.00,VWS V13.01,2013-10-09 07:15:00,
2013-10-09 00:16:00,43.3,40.6,29.56,SE,145,0.0,0.0,90,0.00,,---,0.00,VWS V13.01,2013-10-09 07:16:00,
2013-10-09 00:18:00,43.3,40.6,29.56,SE,145,0.0,0.0,90,0.00,,---,0.00,VWS V13.01,2013-10-09 07:18:00,
2013-10-09 00:19:00,43.3,40.6,29.56,SE,145,0.0,0.0,90,0.00,,---,0.00,VWS V13.01,2013-10-09 07:19:00,
2013-10-09 00:21:00,43.3,40.6,29.56,SE,145,0.0,0.0,90,0.00,,---,0.00,VWS V13.01,2013-10-09 07:21:00,
2013-10-09 00:23:00,43.2,40.4,29.56,SE,145,0.0,0.0,90,0.00,,---,0.00,VWS V13.01,2013-10-09 07:23:00,
2013-10-09 00:24:00,43.2,40.4,29.56,SE,145,0.0,0.0,90,0.00,,---,0.00,VWS V13.01,2013-10-09 07:24:00,
2013-10-09 00:25:00,43.2,40.4,29.56,SE,145,0.0,0.0,90,0.00,,---,0.00,VWS V13.01,2013-10-09 07:25:00,
2013-10-09 00:26:00,43.2,40.4,29.56,SE,145,0.0,0.0,90,0.00,,---,0.00,VWS V13.01,2013-10-09 07:26:00,
2013-10-09 00:27:00,43.2,40.4,29.56,SE,145,0.0,0.0,90,0.00,,---,0.00,VWS V13.01,2013-10-09 07:27:00,
2013-10-09 00:28:00,43.2,40.4,29.56,SE,145,0.0,0.0,90,0.00,,---,0.00,VWS V13.01,2013-10-09 07:28:00,
2013-10-09 00:29:00,43.2,40.4,29.56,SE,145,0.0,0.0,90,0.00,,---,0.00,VWS V13.01,2013-10-09 07:29:00,
2013-10-09 00:30:00,43.2,40.4,29.56,SE,145,0.0,0.0,90,0.00,,---,0.00,VWS V13.01,2013-10-09 07:30:00,
2013-10-09 00:31:00,43.0,40.2,29.56,SE,145,0.0,0.0,90,0.00,,---,0.00,VWS V13.01,2013-10-09 07:31:00,
2013-10-09 00:32:00,43.0,40.2,29.56,SE,145,0.0,0.0,90,0.00,,---,0.00,VWS V13.01,2013-10-09 07:32:00,
2013-10-09 00:33:00,42.8,39.8,29.56,SE,145,0.0,0.0,89,0.00,,---,0.00,VWS V13.01,2013-10-09 07:33:00,
2013-10-09 00:35:00,42.8,39.8,29.56,SE,145,0.0,0.0,89,0.00,,---,0.00,VWS V13.01,2013-10-09 07:35:00,
2013-10-09 00:36:00,42.8,39.8,29.56,SE,145,0.0,0.0,89,0.00,,---,0.00,VWS V13.01,2013-10-09 07:36:00,
2013-10-09 00:37:00,42.8,39.8,29.56,SE,145,0.0,0.0,89,0.00,,---,0.00,VWS V13.01,2013-10-09 07:37:00,
2013-10-09 00:39:00,42.8,40.1,29.56,SE,145,0.0,0.0,90,0.00,,---,0.00,VWS V13.01,2013-10-09 07:39:00,
2013-10-09 00:40:00,42.8,40.1,29.56,SE,145,0.0,0.0,90,0.00,,---,0.00,VWS V13.01,2013-10-09 07:40:00,
2013-10-09 00:41:00,42.6,39.9,29.56,SE,145,0.0,0.0,90,0.00,,---,0.00,VWS V13.01,2013-10-09 07:41:00,
2013-10-09 00:42:00,42.6,39.9,29.56,SE,145,0.0,0.0,90,0.00,,---,0.00,VWS V13.01,2013-10-09 07:42:00,
2013-10-09 00:44:00,42.4,39.7,29.56,SE,145,0.0,0.0,90,0.00,,---,0.00,VWS V13.01,2013-10-09 07:44:00,
2013-10-09 00:45:00,42.4,39.7,29.56,SE,145,0.0,0.0,90,0.00,,---,0.00,VWS V13.01,2013-10-09 07:45:00,
2013-10-09 00:46:00,42.4,39.7,29.56,SE,145,0.0,0.0,90,0.00,,---,0.00,VWS V13.01,2013-10-09 07:46:00,
2013-10-09 00:47:00,42.4,39.7,29.56,SE,145,0.0,0.0,90,0.00,,---,0.00,VWS V13.01,2013-10-09 07:47:00,
2013-10-09 00:50:00,42.4,39.7,29.56,SE,145,0.0,0.0,90,0.00,,---,0.00,VWS V13.01,2013-10-09 07:50:00,
2013-10-09 00:52:00,42.4,39.7,29.56,SE,145,0.0,0.0,90,0.00,,---,0.00,VWS V13.01,2013-10-09 07:52:00,
2013-10-09 00:55:00,42.3,39.5,29.56,SE,145,0.0,0.0,90,0.00,,---,0.00,VWS V13.01,2013-10-09 07:55:00,
2013-10-09 00:56:00,42.3,39.5,29.56,SE,145,0.0,0.0,90,0.00,,---,0.00,VWS V13.01,2013-10-09 07:56:00,
2013-10-09 00:57:00,42.3,39.5,29.56,SE,145,0.0,0.0,90,0.00,,---,0.00,VWS V13.01,2013-10-09 07:57:00,
2013-10-09 01:00:00,42.3,39.5,29.56,SE,145,0.0,0.0,90,0.00,,---,0.00,VWS V13.01,2013-10-09 08:00:00,
2013-10-09 01:01:00,42.3,39.5,29.56,SE,145,0.0,0.0,90,0.00,,---,0.00,VWS V13.01,2013-10-09 08:01:00,
2013-10-09 01:03:00,42.3,39.5,29.56,SE,145,0.0,0.0,90,0.00,,---,0.00,VWS V13.01,2013-10-09 08:03:00,
2013-10-09 01:05:00,42.3,39.5,29.56,SE,145,0.0,0.0,90,0.00,,---,0.00,VWS V13.01,2013-10-09 08:05:00,
2013-10-09 01:06:00,42.3,39.5,29.56,SE,145,0.0,0.0,90,0.00,,---,0.00,VWS V13.01,2013-10-09 08:06:00,
2013-10-09 01:08:00,42.3,39.5,29.56,SE,145,0.0,0.0,90,0.00,,---,0.00,VWS V13.01,2013-10-09 08:08:00,
2013-10-09 01:10:00,42.1,39.4,29.56,SE,145,0.0,0.0,90,0.00,,---,0.00,VWS V13.01,2013-10-09 08:10:00,
2013-10-09 01:11:00,42.1,39.4,29.56,SE,145,0.0,0.0,90,0.00,,---,0.00,VWS V13.01,2013-10-09 08:11:00,
2013-10-09 01:13:00,42.1,39.4,29.56,SE,145,0.0,0.0,90,0.00,,---,0.00,VWS V13.01,2013-10-09 08:13:00,
2013-10-09 01:15:00,42.1,39.4,29.56,SE,145,0.0,0.0,90,0.00,,---,0.00,VWS V13.01,2013-10-09 08:15:00,
2013-10-09 01:16:00,42.1,39.4,29.56,SE,145,0.0,0.0,90,0.00,,---,0.00,VWS V13.01,2013-10-09 08:16:00,
2013-10-09 01:18:00,42.1,39.4,29.56,SE,145,0.0,0.0,90,0.00,,---,0.00,VWS V13.01,2013-10-09 08:18:00,
2013-10-09 01:19:00,42.1,39.4,29.56,SE,145,0.0,0.0,90,0.00,,---,0.00,VWS V13.01,2013-10-09 08:19:00,
2013-10-09 01:20:00,42.1,39.4,29.56,SE,145,0.0,0.0,90,0.00,,---,0.00,VWS V13.01,2013-10-09 08:20:00,
2013-10-09 01:21:00,42.1,39.4,29.56,SE,145,0.0,0.0,90,0.00,,---,0.00,VWS V13.01,2013-10-09 08:21:00,
2013-10-09 01:23:00,41.9,39.2,29.56,SE,145,0.0,0.0,90,0.00,,---,0.00,VWS V13.01,2013-10-09 08:23:00,
2013-10-09 01:24:00,41.9,39.2,29.56,SE,145,0.0,0.0,90,0.00,,---,0.00,VWS V13.01,2013-10-09 08:24:00,
2013-10-09 01:25:00,41.7,39.0,29.56,SE,145,0.0,0.0,90,0.00,,---,0.00,VWS V13.01,2013-10-09 08:25:00,
2013-10-09 01:26:00,41.7,39.0,29.56,SE,145,0.0,0.0,90,0.00,,---,0.00,VWS V13.01,2013-10-09 08:26:00,
2013-10-09 01:27:00,41.7,39.0,29.56,SE,145,0.0,0.0,90,0.00,,---,0.00,VWS V13.01,2013-10-09 08:27:00,
2013-10-09 01:28:00,41.7,39.0,29.56,SE,145,0.0,0.0,90,0.00,,---,0.00,VWS V13.01,2013-10-09 08:28:00,
2013-10-09 01:29:00,41.7,39.0,29.56,SE,145,0.0,0.0,90,0.00,,---,0.00,VWS V13.01,2013-10-09 08:29:00,
2013-10-09 01:30:00,41.7,39.0,29.56,SE,145,0.0,0.0,90,0.00,,---,0.00,VWS V13.01,2013-10-09 08:30:00,
2013-10-09 01:31:00,41.7,39.0,29.56,SE,145,0.0,0.0,90,0.00,,---,0.00,VWS V13.01,2013-10-09 08:31:00,
2013-10-09 01:32:00,41.7,39.0,29.56,SE,145,0.0,0.0,90,0.00,,---,0.00,VWS V13.01,2013-10-09 08:32:00,
2013-10-09 01:33:00,41.7,39.0,29.56,SE,145,0.0,0.0,90,0.00,,---,0.00,VWS V13.01,2013-10-09 08:33:00,
2013-10-09 01:34:00,41.7,39.0,29.56,SE,145,0.0,0.0,90,0.00,,---,0.00,VWS V13.01,2013-10-09 08:34:00,
2013-10-09 01:35:00,41.7,39.0,29.59,SE,145,0.0,0.0,90,0.00,,---,0.00,VWS V13.01,2013-10-09 08:35:00,
2013-10-09 01:36:00,41.7,39.0,29.59,SE,145,0.0,0.0,90,0.00,,---,0.00,VWS V13.01,2013-10-09 08:36:00,
2013-10-09 01:37:00,41.9,39.2,29.59,SE,145,0.0,0.0,90,0.00,,---,0.00,VWS V13.01,2013-10-09 08:37:00,
2013-10-09 01:38:00,41.9,39.2,29.59,SE,145,0.0,0.0,90,0.00,,---,0.00,VWS V13.01,2013-10-09 08:38:00,
2013-10-09 01:39:00,41.9,39.2,29.59,SE,145,0.0,0.0,90,0.00,,---,0.00,VWS V13.01,2013-10-09 08:39:00,
2013-10-09 01:41:00,41.9,39.2,29.59,SE,145,0.0,0.0,90,0.00,,---,0.00,VWS V13.01,2013-10-09 08:41:00,
2013-10-09 01:43:00,41.7,39.0,29.59,SE,145,0.0,0.0,90,0.00,,---,0.00,VWS V13.01,2013-10-09 08:43:00,
2013-10-09 01:44:00,41.7,39.0,29.59,SE,145,0.0,0.0,90,0.00,,---,0.00,VWS V13.01,2013-10-09 08:44:00,
2013-10-09 01:47:00,41.5,38.8,29.59,SE,145,0.0,0.0,90,0.00,,---,0.00,VWS V13.01,2013-10-09 08:47:00,
2013-10-09 01:48:00,41.5,38.8,29.59,SE,145,0.0,0.0,90,0.00,,---,0.00,VWS V13.01,2013-10-09 08:48:00,
2013-10-09 01:49:00,41.7,39.0,29.59,SE,145,0.0,0.0,90,0.00,,---,0.00,VWS V13.01,2013-10-09 08:49:00,
2013-10-09 01:51:00,41.7,39.0,29.59,SE,145,0.0,0.0,90,0.00,,---,0.00,VWS V13.01,2013-10-09 08:51:00,
2013-10-09 01:52:00,41.5,38.8,29.59,SE,145,0.0,0.0,90,0.00,,---,0.00,VWS V13.01,2013-10-09 08:52:00,
2013-10-09 01:53:00,41.5,38.8,29.59,SE,145,0.0,0.0,90,0.00,,---,0.00,VWS V13.01,2013-10-09 08:53:00,
2013-10-09 01:54:00,41.5,38.8,29.59,SE,145,0.0,0.0,90,0.00,,---,0.00,VWS V13.01,2013-10-09 08:54:00,
2013-10-09 01:55:00,41.5,38.8,29.59,SE,145,0.0,0.0,90,0.00,,---,0.00,VWS V13.01,2013-10-09 08:55:00,
2013-10-09 01:56:00,41.5,38.8,29.59,SE,145,0.0,0.0,90,0.00,,---,0.00,VWS V13.01,2013-10-09 08:56:00,
2013-10-09 01:58:00,41.5,38.8,29.59,SE,145,0.0,0.0,90,0.00,,---,0.00,VWS V13.01,2013-10-09 08:58:00,
2013-10-09 02:00:00,41.5,38.8,29.59,SE,145,0.0,0.0,90,0.00,,---,0.00,VWS V13.01,2013-10-09 09:00:00,
2013-10-09 02:01:00,41.2,38.5,29.59,SE,145,0.0,0.0,90,0.00,,---,0.00,VWS V13.01,2013-10-09 09:01:00,
2013-10-09 02:03:00,41.2,38.5,29.59,SE,145,0.0,0.0,90,0.00,,---,0.00,VWS V13.01,2013-10-09 09:03:00,
2013-10-09 02:04:00,41.2,38.5,29.59,SE,145,0.0,0.0,90,0.00,,---,0.00,VWS V13.01,2013-10-09 09:04:00,
2013-10-09 02:05:00,41.2,38.5,29.59,SE,145,0.0,0.0,90,0.00,,---,0.00,VWS V13.01,2013-10-09 09:05:00,
2013-10-09 02:07:00,41.2,38.5,29.59,SE,145,0.0,0.0,90,0.00,,---,0.00,VWS V13.01,2013-10-09 09:07:00,
2013-10-09 02:08:00,41.2,38.5,29.59,SE,145,0.0,0.0,90,0.00,,---,0.00,VWS V13.01,2013-10-09 09:08:00,
2013-10-09 02:09:00,41.2,38.5,29.59,SE,145,0.0,0.0,90,0.00,,---,0.00,VWS V13.01,2013-10-09 09:09:00,
2013-10-09 02:10:00,41.2,38.5,29.59,SE,145,0.0,0.0,90,0.00,,---,0.00,VWS V13.01,2013-10-09 09:10:00,
2013-10-09 02:12:00,41.0,38.3,29.59,SE,145,0.0,0.0,90,0.00,,---,0.00,VWS V13.01,2013-10-09 09:12:00,
2013-10-09 02:13:00,41.0,38.3,29.59,SE,145,0.0,0.0,90,0.00,,---,0.00,VWS V13.01,2013-10-09 09:13:00,
2013-10-09 02:14:00,40.8,38.4,29.59,SE,145,0.0,0.0,91,0.00,,---,0.00,VWS V13.01,2013-10-09 09:14:00,
2013-10-09 02:15:00,40.8,38.4,29.59,SE,145,0.0,0.0,91,0.00,,---,0.00,VWS V13.01,2013-10-09 09:15:00,
2013-10-09 02:17:00,40.8,38.4,29.59,SE,145,0.0,0.0,91,0.00,,---,0.00,VWS V13.01,2013-10-09 09:17:00,
2013-10-09 02:18:00,40.8,38.4,29.59,SE,145,0.0,0.0,91,0.00,,---,0.00,VWS V13.01,2013-10-09 09:18:00,
2013-10-09 02:19:00,40.8,38.4,29.59,SE,145,0.0,0.0,91,0.00,,---,0.00,VWS V13.01,2013-10-09 09:19:00,
2013-10-09 02:20:00,40.8,38.4,29.59,SE,145,0.0,0.0,91,0.00,,---,0.00,VWS V13.01,2013-10-09 09:20:00,
2013-10-09 02:22:00,40.8,38.4,29.59,SE,145,0.0,0.0,91,0.00,,---,0.00,VWS V13.01,2013-10-09 09:22:00,
2013-10-09 02:23:00,40.8,38.4,29.59,SE,145,0.0,0.0,91,0.00,,---,0.00,VWS V13.01,2013-10-09 09:23:00,
2013-10-09 02:24:00,40.8,38.4,29.59,SE,145,0.0,0.0,91,0.00,,---,0.00,VWS V13.01,2013-10-09 09:24:00,
2013-10-09 02:25:00,40.8,38.4,29.59,SE,145,0.0,0.0,91,0.00,,---,0.00,VWS V13.01,2013-10-09 09:25:00,
2013-10-09 02:27:00,40.8,38.4,29.59,SE,145,0.0,0.0,91,0.00,,---,0.00,VWS V13.01,2013-10-09 09:27:00,
2013-10-09 02:29:00,40.8,38.4,29.59,SE,145,0.0,0.0,91,0.00,,---,0.00,VWS V13.01,2013-10-09 09:29:00,
2013-10-09 02:30:00,40.8,38.4,29.59,SE,145,0.0,0.0,91,0.00,,---,0.00,VWS V13.01,2013-10-09 09:30:00,
2013-10-09 02:31:00,40.8,38.4,29.59,SE,145,0.0,0.0,91,0.00,,---,0.00,VWS V13.01,2013-10-09 09:31:00,
2013-10-09 02:32:00,40.8,38.4,29.59,SE,145,0.0,0.0,91,0.00,,---,0.00,VWS V13.01,2013-10-09 09:32:00,
2013-10-09 02:34:00,40.8,38.4,29.59,SE,145,0.0,0.0,91,0.00,,---,0.00,VWS V13.01,2013-10-09 09:34:00,
2013-10-09 02:35:00,40.8,38.4,29.59,SE,145,0.0,0.0,91,0.00,,---,0.00,VWS V13.01,2013-10-09 09:35:00,
2013-10-09 02:36:00,40.8,38.4,29.59,SE,145,0.0,0.0,91,0.00,,---,0.00,VWS V13.01,2013-10-09 09:36:00,
2013-10-09 02:37:00,40.8,38.4,29.59,SE,145,0.0,0.0,91,0.00,,---,0.00,VWS V13.01,2013-10-09 09:37:00,
2013-10-09 02:39:00,40.8,38.4,29.59,SE,145,0.0,0.0,91,0.00,,---,0.00,VWS V13.01,2013-10-09 09:39:00,
2013-10-09 02:40:00,40.8,38.4,29.59,SE,145,0.0,0.0,91,0.00,,---,0.00,VWS V13.01,2013-10-09 09:40:00,
2013-10-09 02:41:00,40.8,38.4,29.59,SE,145,0.0,0.0,91,0.00,,---,0.00,VWS V13.01,2013-10-09 09:41:00,
2013-10-09 02:42:00,40.6,38.2,29.59,SE,145,0.0,0.0,91,0.00,,---,0.00,VWS V13.01,2013-10-09 09:42:00,
2013-10-09 02:44:00,40.5,38.0,29.59,SE,145,0.0,0.0,91,0.00,,---,0.00,VWS V13.01,2013-10-09 09:44:00,
2013-10-09 02:45:00,40.5,38.0,29.59,SE,145,0.0,0.0,91,0.00,,---,0.00,VWS V13.01,2013-10-09 09:45:00,
2013-10-09 02:46:00,40.5,38.0,29.59,SE,145,0.0,0.0,91,0.00,,---,0.00,VWS V13.01,2013-10-09 09:46:00,
2013-10-09 02:47:00,40.5,38.0,29.59,SE,145,0.0,0.0,91,0.00,,---,0.00,VWS V13.01,2013-10-09 09:47:00,
2013-10-09 02:49:00,40.5,38.0,29.59,SE,145,0.0,0.0,91,0.00,,---,0.00,VWS V13.01,2013-10-09 09:49:00,
2013-10-09 02:50:00,40.5,38.0,29.59,SE,145,0.0,0.0,91,0.00,,---,0.00,VWS V13.01,2013-10-09 09:50:00,
2013-10-09 02:51:00,40.5,38.0,29.59,SE,145,0.0,0.0,91,0.00,,---,0.00,VWS V13.01,2013-10-09 09:51:00,
2013-10-09 02:52:00,40.5,38.0,29.59,SE,145,0.0,0.0,91,0.00,,---,0.00,VWS V13.01,2013-10-09 09:52:00,
2013-10-09 02:54:00,40.3,37.9,29.59,SE,145,0.0,0.0,91,0.00,,---,0.00,VWS V13.01,2013-10-09 09:54:00,
2013-10-09 02:55:00,40.3,37.9,29.59,SE,145,0.0,0.0,91,0.00,,---,0.00,VWS V13.01,2013-10-09 09:55:00,
2013-10-09 02:56:00,40.3,37.9,29.59,SE,145,0.0,0.0,91,0.00,,---,0.00,VWS V13.01,2013-10-09 09:56:00,
2013-10-09 02:57:00,40.3,37.9,29.59,SE,145,0.0,0.0,91,0.00,,---,0.00,VWS V13.01,2013-10-09 09:57:00,
2013-10-09 03:00:00,40.1,37.7,29.59,SE,145,0.0,0.0,91,0.00,,---,0.00,VWS V13.01,2013-10-09 10:00:00,
2013-10-09 03:01:00,40.1,37.7,29.59,SE,145,0.0,0.0,91,0.00,,---,0.00,VWS V13.01,2013-10-09 10:01:00,
2013-10-09 03:02:00,40.1,37.7,29.59,SE,145,0.0,0.0,91,0.00,,---,0.00,VWS V13.01,2013-10-09 10:02:00,
2013-10-09 03:05:00,40.1,37.7,29.59,SE,145,0.0,0.0,91,0.00,,---,0.00,VWS V13.01,2013-10-09 10:05:00,
2013-10-09 03:06:00,39.9,37.5,29.59,SE,145,0.0,0.0,91,0.00,,---,0.00,VWS V13.01,2013-10-09 10:06:00,
2013-10-09 03:07:00,39.9,37.5,29.59,SE,145,0.0,0.0,91,0.00,,---,0.00,VWS V13.01,2013-10-09 10:07:00,
2013-10-09 03:10:00,39.9,37.5,29.59,SE,145,0.0,0.0,91,0.00,,---,0.00,VWS V13.01,2013-10-09 10:10:00,
2013-10-09 03:11:00,39.9,37.5,29.59,SE,145,0.0,0.0,91,0.00,,---,0.00,VWS V13.01,2013-10-09 10:11:00,
2013-10-09 03:12:00,39.9,37.5,29.59,SE,145,0.0,0.0,91,0.00,,---,0.00,VWS V13.01,2013-10-09 10:12:00,
2013-10-09 03:15:00,39.9,37.5,29.59,SE,145,0.0,0.0,91,0.00,,---,0.00,VWS V13.01,2013-10-09 10:15:00,
2013-10-09 03:16:00,39.9,37.5,29.59,SE,145,0.0,0.0,91,0.00,,---,0.00,VWS V13.01,2013-10-09 10:16:00,
2013-10-09 03:17:00,39.9,37.5,29.59,SE,145,0.0,0.0,91,0.00,,---,0.00,VWS V13.01,2013-10-09 10:17:00,
2013-10-09 03:18:00,39.9,37.5,29.59,SE,145,0.0,0.0,91,0.00,,---,0.00,VWS V13.01,2013-10-09 10:18:00,
2013-10-09 03:22:00,39.7,37.3,29.59,SE,145,0.0,0.0,91,0.00,,---,0.00,VWS V13.01,2013-10-09 10:22:00,
2013-10-09 03:23:00,39.7,37.3,29.59,SE,145,0.0,0.0,91,0.00,,---,0.00,VWS V13.01,2013-10-09 10:23:00,
2013-10-09 03:28:00,39.9,37.5,29.59,SE,145,0.0,0.0,91,0.00,,---,0.00,VWS V13.01,2013-10-09 10:28:00,
2013-10-09 03:33:00,39.7,37.3,29.59,SE,145,0.0,0.0,91,0.00,,---,0.00,VWS V13.01,2013-10-09 10:33:00,
2013-10-09 03:38:00,39.7,37.3,29.59,SE,145,0.0,0.0,91,0.00,,---,0.00,VWS V13.01,2013-10-09 10:38:00,
2013-10-09 03:43:00,39.6,37.2,29.59,SE,145,0.0,0.0,91,0.00,,---,0.00,VWS V13.01,2013-10-09 10:43:00,
2013-10-09 03:44:00,39.6,37.2,29.59,SE,145,0.0,0.0,91,0.00,,---,0.00,VWS V13.01,2013-10-09 10:44:00,
2013-10-09 03:48:00,39.6,37.2,29.59,SE,145,0.0,0.0,91,0.00,,---,0.00,VWS V13.01,2013-10-09 10:48:00,
2013-10-09 03:49:00,39.4,37.0,29.59,SE,145,0.0,0.0,91,0.00,,---,0.00,VWS V13.01,2013-10-09 10:49:00,
2013-10-09 03:50:00,39.4,37.0,29.59,SE,145,0.0,0.0,91,0.00,,---,0.00,VWS V13.01,2013-10-09 10:50:00,
2013-10-09 03:53:00,39.4,37.0,29.59,SE,145,0.0,0.0,91,0.00,,---,0.00,VWS V13.01,2013-10-09 10:53:00,
2013-10-09 03:54:00,39.4,37.0,29.59,SE,145,0.0,0.0,91,0.00,,---,0.00,VWS V13.01,2013-10-09 10:54:00,
2013-10-09 03:55:00,39.4,37.0,29.59,SE,145,0.0,0.0,91,0.00,,---,0.00,VWS V13.01,2013-10-09 10:55:00,
2013-10-09 03:58:00,39.4,37.0,29.59,SE,145,0.0,0.0,91,0.00,,---,0.00,VWS V13.01,2013-10-09 10:58:00,
2013-10-09 03:59:00,39.4,37.0,29.59,SE,145,0.0,0.0,91,0.00,,---,0.00,VWS V13.01,2013-10-09 10:59:00,
2013-10-09 04:00:00,39.4,37.0,29.59,SE,145,0.0,0.0,91,0.00,,---,0.00,VWS V13.01,2013-10-09 11:00:00,
2013-10-09 04:03:00,39.4,37.0,29.59,SE,145,0.0,0.0,91,0.00,,---,0.00,VWS V13.01,2013-10-09 11:03:00,
2013-10-09 04:04:00,39.4,37.0,29.59,SE,145,0.0,0.0,91,0.00,,---,0.00,VWS V13.01,2013-10-09 11:04:00,
2013-10-09 04:05:00,39.2,36.8,29.59,SE,145,0.0,0.0,91,0.00,,---,0.00,VWS V13.01,2013-10-09 11:05:00,
2013-10-09 04:08:00,39.2,36.8,29.59,SE,145,0.0,0.0,91,0.00,,---,0.00,VWS V13.01,2013-10-09 11:08:00,
2013-10-09 04:09:00,39.2,36.8,29.59,SE,145,0.0,0.0,91,0.00,,---,0.00,VWS V13.01,2013-10-09 11:09:00,
2013-10-09 04:10:00,39.2,36.8,29.59,SE,145,0.0,0.0,91,0.00,,---,0.00,VWS V13.01,2013-10-09 11:10:00,
2013-10-09 04:13:00,39.2,36.8,29.59,SE,145,0.0,0.0,91,0.00,,---,0.00,VWS V13.01,2013-10-09 11:13:00,
2013-10-09 04:14:00,39.0,36.6,29.59,SE,145,0.0,0.0,91,0.00,,---,0.00,VWS V13.01,2013-10-09 11:14:00,
2013-10-09 04:15:00,39.0,36.6,29.59,SE,145,0.0,0.0,91,0.00,,---,0.00,VWS V13.01,2013-10-09 11:15:00,
2013-10-09 04:18:00,39.0,36.6,29.59,SE,145,0.0,0.0,91,0.00,,---,0.00,VWS V13.01,2013-10-09 11:18:00,
2013-10-09 04:19:00,39.0,36.6,29.59,SE,145,0.0,0.0,91,0.00,,---,0.00,VWS V13.01,2013-10-09 11:19:00,
2013-10-09 04:20:00,39.0,36.6,29.59,SE,145,0.0,0.0,91,0.00,,---,0.00,VWS V13.01,2013-10-09 11:20:00,
2013-10-09 04:23:00,39.0,36.6,29.59,SE,145,0.0,0.0,91,0.00,,---,0.00,VWS V13.01,2013-10-09 11:23:00,
2013-10-09 04:24:00,38.8,36.7,29.59,SE,145,0.0,0.0,92,0.00,,---,0.00,VWS V13.01,2013-10-09 11:24:00,
2013-10-09 04:25:00,38.8,36.7,29.59,SE,145,0.0,0.0,92,0.00,,---,0.00,VWS V13.01,2013-10-09 11:25:00,
2013-10-09 04:28:00,38.8,36.7,29.59,SE,145,0.0,0.0,92,0.00,,---,0.00,VWS V13.01,2013-10-09 11:28:00,
2013-10-09 04:29:00,38.8,36.7,29.59,SE,145,0.0,0.0,92,0.00,,---,0.00,VWS V13.01,2013-10-09 11:29:00,
2013-10-09 04:30:00,38.8,36.7,29.59,SE,145,0.0,0.0,92,0.00,,---,0.00,VWS V13.01,2013-10-09 11:30:00,
2013-10-09 04:33:00,38.8,36.7,29.59,SE,145,0.0,0.0,92,0.00,,---,0.00,VWS V13.01,2013-10-09 11:33:00,
2013-10-09 04:34:00,38.8,36.7,29.59,SE,145,0.0,0.0,92,0.00,,---,0.00,VWS V13.01,2013-10-09 11:34:00,
2013-10-09 04:35:00,38.8,36.7,29.59,SE,145,0.0,0.0,92,0.00,,---,0.00,VWS V13.01,2013-10-09 11:35:00,
2013-10-09 04:36:00,38.8,36.7,29.59,SE,145,0.0,0.0,92,0.00,,---,0.00,VWS V13.01,2013-10-09 11:36:00,
2013-10-09 04:38:00,38.8,36.7,29.59,SE,145,0.0,0.0,92,0.00,,---,0.00,VWS V13.01,2013-10-09 11:38:00,
2013-10-09 04:39:00,38.8,36.7,29.59,SE,145,0.0,0.0,92,0.00,,---,0.00,VWS V13.01,2013-10-09 11:39:00,
2013-10-09 04:40:00,38.8,36.7,29.59,SE,145,0.0,0.0,92,0.00,,---,0.00,VWS V13.01,2013-10-09 11:40:00,
2013-10-09 04:41:00,38.8,36.7,29.59,SE,145,0.0,0.0,92,0.00,,---,0.00,VWS V13.01,2013-10-09 11:41:00,
2013-10-09 04:44:00,38.8,36.7,29.59,SE,145,0.0,0.0,92,0.00,,---,0.00,VWS V13.01,2013-10-09 11:44:00,
2013-10-09 04:45:00,38.7,36.5,29.59,SE,145,0.0,0.0,92,0.00,,---,0.00,VWS V13.01,2013-10-09 11:45:00,
2013-10-09 04:46:00,38.7,36.5,29.59,SE,145,0.0,0.0,92,0.00,,---,0.00,VWS V13.01,2013-10-09 11:46:00,
2013-10-09 04:49:00,38.7,36.5,29.59,SE,145,0.0,0.0,92,0.00,,---,0.00,VWS V13.01,2013-10-09 11:49:00,
2013-10-09 04:50:00,38.7,36.5,29.59,SE,145,0.0,0.0,92,0.00,,---,0.00,VWS V13.01,2013-10-09 11:50:00,
2013-10-09 04:51:00,38.7,36.5,29.59,SE,145,0.0,0.0,92,0.00,,---,0.00,VWS V13.01,2013-10-09 11:51:00,
2013-10-09 04:54:00,38.7,36.5,29.59,SE,145,0.0,0.0,92,0.00,,---,0.00,VWS V13.01,2013-10-09 11:54:00,
2013-10-09 04:55:00,38.7,36.5,29.59,SE,145,0.0,0.0,92,0.00,,---,0.00,VWS V13.01,2013-10-09 11:55:00,
2013-10-09 04:56:00,38.7,36.5,29.59,SE,145,0.0,0.0,92,0.00,,---,0.00,VWS V13.01,2013-10-09 11:56:00,
2013-10-09 04:57:00,38.7,36.5,29.59,SE,145,0.0,0.0,92,0.00,,---,0.00,VWS V13.01,2013-10-09 11:57:00,
2013-10-09 04:59:00,38.8,36.7,29.59,SE,145,0.0,0.0,92,0.00,,---,0.00,VWS V13.01,2013-10-09 11:59:00,
2013-10-09 05:01:00,38.7,36.5,29.59,SE,145,0.0,0.0,92,0.00,,---,0.00,VWS V13.01,2013-10-09 12:01:00,
2013-10-09 05:02:00,38.7,36.5,29.59,SE,145,0.0,0.0,92,0.00,,---,0.00,VWS V13.01,2013-10-09 12:02:00,
2013-10-09 05:03:00,38.7,36.5,29.59,SE,145,0.0,0.0,92,0.00,,---,0.00,VWS V13.01,2013-10-09 12:03:00,
2013-10-09 05:04:00,38.7,36.5,29.59,SE,145,0.0,0.0,92,0.00,,---,0.00,VWS V13.01,2013-10-09 12:04:00,
2013-10-09 05:06:00,38.7,36.5,29.59,SE,145,0.0,0.0,92,0.00,,---,0.00,VWS V13.01,2013-10-09 12:06:00,
2013-10-09 05:07:00,38.7,36.5,29.59,SE,145,0.0,0.0,92,0.00,,---,0.00,VWS V13.01,2013-10-09 12:07:00,
2013-10-09 05:08:00,38.7,36.5,29.59,SE,145,0.0,0.0,92,0.00,,---,0.00,VWS V13.01,2013-10-09 12:08:00,
2013-10-09 05:09:00,38.7,36.5,29.59,SE,145,0.0,0.0,92,0.00,,---,0.00,VWS V13.01,2013-10-09 12:09:00,
2013-10-09 05:10:00,38.5,36.4,29.59,SE,145,0.0,0.0,92,0.00,,---,0.00,VWS V13.01,2013-10-09 12:10:00,
2013-10-09 05:12:00,38.5,36.4,29.59,SE,145,0.0,0.0,92,0.00,,---,0.00,VWS V13.01,2013-10-09 12:12:00,
2013-10-09 05:14:00,38.5,36.4,29.59,SE,145,0.0,0.0,92,0.00,,---,0.00,VWS V13.01,2013-10-09 12:14:00,
2013-10-09 05:15:00,38.5,36.4,29.59,SE,145,0.0,0.0,92,0.00,,---,0.00,VWS V13.01,2013-10-09 12:15:00,
2013-10-09 05:17:00,38.5,36.4,29.59,SE,145,0.0,0.0,92,0.00,,---,0.00,VWS V13.01,2013-10-09 12:17:00,
2013-10-09 05:18:00,38.5,36.4,29.59,SE,145,0.0,0.0,92,0.00,,---,0.00,VWS V13.01,2013-10-09 12:18:00,
2013-10-09 05:19:00,38.5,36.4,29.59,SE,145,0.0,0.0,92,0.00,,---,0.00,VWS V13.01,2013-10-09 12:19:00,
2013-10-09 05:20:00,38.5,36.4,29.59,SE,145,0.0,0.0,92,0.00,,---,0.00,VWS V13.01,2013-10-09 12:20:00,
2013-10-09 05:21:00,38.5,36.4,29.59,SE,145,0.0,0.0,92,0.00,,---,0.00,VWS V13.01,2013-10-09 12:21:00,
2013-10-09 05:22:00,38.5,36.4,29.59,SE,145,0.0,0.0,92,0.00,,---,0.00,VWS V13.01,2013-10-09 12:22:00,
2013-10-09 05:23:00,38.5,36.4,29.59,SE,145,0.0,0.0,92,0.00,,---,0.00,VWS V13.01,2013-10-09 12:23:00,
2013-10-09 05:24:00,38.5,36.4,29.59,SE,145,0.0,0.0,92,0.00,,---,0.00,VWS V13.01,2013-10-09 12:24:00,
2013-10-09 05:25:00,38.5,36.4,29.59,SE,145,0.0,0.0,92,0.00,,---,0.00,VWS V13.01,2013-10-09 12:25:00,
2013-10-09 05:26:00,38.5,36.4,29.59,SE,145,0.0,0.0,92,0.00,,---,0.00,VWS V13.01,2013-10-09 12:26:00,
2013-10-09 05:28:00,38.5,36.4,29.59,SE,145,0.0,0.0,92,0.00,,---,0.00,VWS V13.01,2013-10-09 12:28:00,
2013-10-09 05:29:00,38.3,36.2,29.59,SE,145,0.0,0.0,92,0.00,,---,0.00,VWS V13.01,2013-10-09 12:29:00,
2013-10-09 05:30:00,38.3,36.2,29.59,SE,145,0.0,0.0,92,0.00,,---,0.00,VWS V13.01,2013-10-09 12:30:00,
2013-10-09 05:31:00,38.1,36.0,29.59,SE,145,0.0,0.0,92,0.00,,---,0.00,VWS V13.01,2013-10-09 12:31:00,
2013-10-09 05:33:00,38.1,36.0,29.59,SE,145,0.0,0.0,92,0.00,,---,0.00,VWS V13.01,2013-10-09 12:33:00,
2013-10-09 05:34:00,38.1,36.0,29.59,SE,145,0.0,0.0,92,0.00,,---,0.00,VWS V13.01,2013-10-09 12:34:00,
2013-10-09 05:35:00,38.1,36.0,29.59,SE,145,0.0,0.0,92,0.00,,---,0.00,VWS V13.01,2013-10-09 12:35:00,
2013-10-09 05:36:00,38.1,36.0,29.59,SE,145,0.0,0.0,92,0.00,,---,0.00,VWS V13.01,2013-10-09 12:36:00,
2013-10-09 05:38:00,38.3,36.2,29.59,SE,145,0.0,0.0,92,0.00,,---,0.00,VWS V13.01,2013-10-09 12:38:00,
2013-10-09 05:39:00,38.3,36.2,29.59,SE,145,0.0,0.0,92,0.00,,---,0.00,VWS V13.01,2013-10-09 12:39:00,
2013-10-09 05:40:00,38.3,36.2,29.59,SE,145,0.0,0.0,92,0.00,,---,0.00,VWS V13.01,2013-10-09 12:40:00,
2013-10-09 05:41:00,38.1,36.0,29.59,SE,145,0.0,0.0,92,0.00,,---,0.00,VWS V13.01,2013-10-09 12:41:00,
2013-10-09 05:43:00,38.1,36.0,29.59,SE,145,0.0,0.0,92,0.00,,---,0.00,VWS V13.01,2013-10-09 12:43:00,
2013-10-09 05:45:00,37.9,35.8,29.59,SE,145,0.0,0.0,92,0.00,,---,0.00,VWS V13.01,2013-10-09 12:45:00,
2013-10-09 05:46:00,37.9,35.8,29.59,SE,145,0.0,0.0,92,0.00,,---,0.00,VWS V13.01,2013-10-09 12:46:00,
2013-10-09 05:48:00,37.9,35.8,29.59,SE,145,0.0,0.0,92,0.00,,---,0.00,VWS V13.01,2013-10-09 12:48:00,
2013-10-09 05:50:00,37.9,35.8,29.59,SE,145,0.0,0.0,92,0.00,,---,0.00,VWS V13.01,2013-10-09 12:50:00,
2013-10-09 05:51:00,37.9,35.8,29.59,SE,145,0.0,0.0,92,0.00,,---,0.00,VWS V13.01,2013-10-09 12:51:00,
2013-10-09 05:54:00,37.9,35.8,29.59,SE,145,0.0,0.0,92,0.00,,---,0.00,VWS V13.01,2013-10-09 12:54:00,
2013-10-09 05:55:00,38.1,36.0,29.59,SE,145,0.0,0.0,92,0.00,,---,0.00,VWS V13.01,2013-10-09 12:55:00,
2013-10-09 05:56:00,38.1,36.0,29.59,SE,145,0.0,0.0,92,0.00,,---,0.00,VWS V13.01,2013-10-09 12:56:00,
2013-10-09 05:59:00,37.9,35.5,29.59,SE,145,0.0,0.0,91,0.00,,---,0.00,VWS V13.01,2013-10-09 12:59:00,
2013-10-09 06:00:00,37.9,35.5,29.59,SE,145,0.0,0.0,91,0.00,,---,0.00,VWS V13.01,2013-10-09 13:00:00,
2013-10-09 06:01:00,37.9,35.5,29.59,SE,145,0.0,0.0,91,0.00,,---,0.00,VWS V13.01,2013-10-09 13:01:00,
2013-10-09 06:04:00,37.9,35.5,29.59,SE,145,0.0,0.0,91,0.00,,---,0.00,VWS V13.01,2013-10-09 13:04:00,
2013-10-09 06:05:00,37.9,35.5,29.59,SE,145,0.0,0.0,91,0.00,,---,0.00,VWS V13.01,2013-10-09 13:05:00,
2013-10-09 06:06:00,37.9,35.5,29.59,SE,145,0.0,0.0,91,0.00,,---,0.00,VWS V13.01,2013-10-09 13:06:00,
2013-10-09 06:09:00,37.8,35.4,29.59,SE,145,0.0,0.0,91,0.00,,---,0.00,VWS V13.01,2013-10-09 13:09:00,
2013-10-09 06:10:00,37.8,35.4,29.59,SE,145,0.0,0.0,91,0.00,,---,0.00,VWS V13.01,2013-10-09 13:10:00,
2013-10-09 06:11:00,37.8,35.4,29.59,SE,145,0.0,0.0,91,0.00,,---,0.00,VWS V13.01,2013-10-09 13:11:00,
2013-10-09 06:12:00,37.9,35.5,29.59,SE,145,0.0,0.0,91,0.00,,---,0.00,VWS V13.01,2013-10-09 13:12:00,
2013-10-09 06:14:00,37.9,35.5,29.59,SE,145,0.0,0.0,91,0.00,,---,0.00,VWS V13.01,2013-10-09 13:14:00,
2013-10-09 06:15:00,37.9,35.5,29.59,SE,145,0.0,0.0,91,0.00,,---,0.00,VWS V13.01,2013-10-09 13:15:00,
2013-10-09 06:16:00,37.9,35.5,29.59,SE,145,0.0,0.0,91,0.00,,---,0.00,VWS V13.01,2013-10-09 13:16:00,
2013-10-09 06:17:00,37.9,35.5,29.59,SE,145,0.0,0.0,91,0.00,,---,0.00,VWS V13.01,2013-10-09 13:17:00,
2013-10-09 06:19:00,37.9,35.5,29.59,SE,145,0.0,0.0,91,0.00,,---,0.00,VWS V13.01,2013-10-09 13:19:00,
2013-10-09 06:20:00,37.9,35.5,29.59,SE,145,0.0,0.0,91,0.00,,---,0.00,VWS V13.01,2013-10-09 13:20:00,
2013-10-09 06:21:00,37.9,35.5,29.59,SE,145,0.0,0.0,91,0.00,,---,0.00,VWS V13.01,2013-10-09 13:21:00,
2013-10-09 06:22:00,37.9,35.5,29.59,SE,145,0.0,0.0,91,0.00,,---,0.00,VWS V13.01,2013-10-09 13:22:00,
2013-10-09 06:24:00,38.1,35.7,29.59,SE,145,0.0,0.0,91,0.00,,---,0.00,VWS V13.01,2013-10-09 13:24:00,
2013-10-09 06:26:00,38.1,35.7,29.59,SE,145,0.0,0.0,91,0.00,,---,0.00,VWS V13.01,2013-10-09 13:26:00,
2013-10-09 06:27:00,37.9,35.5,29.59,SE,145,0.0,0.0,91,0.00,,---,0.00,VWS V13.01,2013-10-09 13:27:00,
2013-10-09 06:29:00,37.9,35.5,29.59,SE,145,0.0,0.0,91,0.00,,---,0.00,VWS V13.01,2013-10-09 13:29:00,
2013-10-09 06:31:00,37.9,35.5,29.59,SE,145,0.0,0.0,91,0.00,,---,0.00,VWS V13.01,2013-10-09 13:31:00,
2013-10-09 06:32:00,37.8,35.4,29.59,SE,145,0.0,0.0,91,0.00,,---,0.00,VWS V13.01,2013-10-09 13:32:00,
2013-10-09 06:34:00,37.6,35.2,29.59,SE,145,0.0,0.0,91,0.00,,---,0.00,VWS V13.01,2013-10-09 13:34:00,
2013-10-09 06:36:00,37.6,35.2,29.59,SE,145,0.0,0.0,91,0.00,,---,0.00,VWS V13.01,2013-10-09 13:36:00,
2013-10-09 06:37:00,37.8,35.4,29.59,SE,145,0.0,0.0,91,0.00,,---,0.00,VWS V13.01,2013-10-09 13:37:00,
2013-10-09 06:39:00,37.8,35.4,29.59,SE,145,0.0,0.0,91,0.00,,---,0.00,VWS V13.01,2013-10-09 13:39:00,
2013-10-09 06:41:00,37.6,35.2,29.59,SE,145,0.0,0.0,91,0.00,,---,0.00,VWS V13.01,2013-10-09 13:41:00,
2013-10-09 06:42:00,37.6,35.2,29.59,SE,145,0.0,0.0,91,0.00,,---,0.00,VWS V13.01,2013-10-09 13:42:00,
2013-10-09 06:43:00,37.6,35.2,29.59,SE,145,0.0,0.0,91,0.00,,---,0.00,VWS V13.01,2013-10-09 13:43:00,
2013-10-09 06:44:00,37.6,35.2,29.59,SE,145,0.0,0.0,91,0.00,,---,0.00,VWS V13.01,2013-10-09 13:44:00,
2013-10-09 06:46:00,37.6,35.2,29.59,SE,145,0.0,0.0,91,0.00,,---,0.00,VWS V13.01,2013-10-09 13:46:00,
2013-10-09 06:47:00,37.6,35.2,29.59,SE,145,0.0,0.0,91,0.00,,---,0.00,VWS V13.01,2013-10-09 13:47:00,
2013-10-09 06:48:00,37.6,35.2,29.59,SE,145,0.0,0.0,91,0.00,,---,0.00,VWS V13.01,2013-10-09 13:48:00,
2013-10-09 06:50:00,37.6,35.2,29.59,SE,145,0.0,0.0,91,0.00,,---,0.00,VWS V13.01,2013-10-09 13:50:00,
2013-10-09 06:51:00,37.6,35.2,29.59,SE,145,0.0,0.0,91,0.00,,---,0.00,VWS V13.01,2013-10-09 13:51:00,
2013-10-09 06:52:00,37.6,35.2,29.59,SE,145,0.0,0.0,91,0.00,,---,0.00,VWS V13.01,2013-10-09 13:52:00,
2013-10-09 06:53:00,37.6,35.2,29.59,SE,145,0.0,0.0,91,0.00,,---,0.00,VWS V13.01,2013-10-09 13:53:00,
2013-10-09 06:55:00,37.6,35.2,29.59,SE,145,0.0,0.0,91,0.00,,---,0.00,VWS V13.01,2013-10-09 13:55:00,
2013-10-09 06:57:00,37.6,35.2,29.59,SE,145,0.0,0.0,91,0.00,,---,0.00,VWS V13.01,2013-10-09 13:57:00,
2013-10-09 06:58:00,37.4,35.0,29.59,SE,145,0.0,0.0,91,0.00,,---,0.00,VWS V13.01,2013-10-09 13:58:00,
2013-10-09 07:00:00,37.4,35.0,29.59,SE,145,0.0,0.0,91,0.00,,---,0.00,VWS V13.01,2013-10-09 14:00:00,
2013-10-09 07:02:00,37.4,35.0,29.59,SE,145,0.0,0.0,91,0.00,,---,0.00,VWS V13.01,2013-10-09 14:02:00,
2013-10-09 07:03:00,37.4,35.0,29.59,SE,145,0.0,0.0,91,0.00,,---,0.00,VWS V13.01,2013-10-09 14:03:00,
2013-10-09 07:04:00,37.4,35.0,29.59,SE,145,0.0,0.0,91,0.00,,---,0.00,VWS V13.01,2013-10-09 14:04:00,
2013-10-09 07:06:00,37.4,35.0,29.59,SE,145,0.0,0.0,91,0.00,,---,0.00,VWS V13.01,2013-10-09 14:06:00,
2013-10-09 07:07:00,37.4,35.0,29.59,SE,145,0.0,0.0,91,0.00,,---,0.00,VWS V13.01,2013-10-09 14:07:00,
2013-10-09 07:08:00,37.4,35.0,29.59,SE,145,0.0,0.0,91,0.00,,---,0.00,VWS V13.01,2013-10-09 14:08:00,
2013-10-09 07:09:00,37.4,35.0,29.59,SE,145,0.0,0.0,91,0.00,,---,0.00,VWS V13.01,2013-10-09 14:09:00,
2013-10-09 07:12:00,37.4,35.0,29.59,SE,145,0.0,0.0,91,0.00,,---,0.00,VWS V13.01,2013-10-09 14:12:00,
2013-10-09 07:13:00,37.4,35.0,29.59,SE,145,0.0,0.0,91,0.00,,---,0.00,VWS V13.01,2013-10-09 14:13:00,
2013-10-09 07:14:00,37.4,35.0,29.59,SE,145,0.0,0.0,91,0.00,,---,0.00,VWS V13.01,2013-10-09 14:14:00,
2013-10-09 07:17:00,37.4,35.0,29.59,SE,145,0.0,0.0,91,0.00,,---,0.00,VWS V13.01,2013-10-09 14:17:00,
2013-10-09 07:18:00,37.4,35.0,29.59,SE,145,0.0,0.0,91,0.00,,---,0.00,VWS V13.01,2013-10-09 14:18:00,
2013-10-09 07:19:00,37.4,35.0,29.59,SE,145,0.0,0.0,91,0.00,,---,0.00,VWS V13.01,2013-10-09 14:19:00,
2013-10-09 07:20:00,37.4,35.0,29.59,SE,145,0.0,0.0,91,0.00,,---,0.00,VWS V13.01,2013-10-09 14:20:00,
2013-10-09 07:22:00,37.6,35.2,29.59,SE,145,0.0,0.0,91,0.00,,---,0.00,VWS V13.01,2013-10-09 14:22:00,
2013-10-09 07:23:00,37.6,35.2,29.59,SE,145,0.0,0.0,91,0.00,,---,0.00,VWS V13.01,2013-10-09 14:23:00,
2013-10-09 07:24:00,37.6,35.2,29.59,SE,145,0.0,0.0,91,0.00,,---,0.00,VWS V13.01,2013-10-09 14:24:00,
2013-10-09 07:25:00,37.6,35.2,29.59,SE,145,0.0,0.0,91,0.00,,---,0.00,VWS V13.01,2013-10-09 14:25:00,
2013-10-09 07:27:00,37.4,35.0,29.59,SE,145,0.0,0.0,91,0.00,,---,0.00,VWS V13.01,2013-10-09 14:27:00,
2013-10-09 07:28:00,37.4,35.0,29.59,SE,145,0.0,0.0,91,0.00,,---,0.00,VWS V13.01,2013-10-09 14:28:00,
2013-10-09 07:29:00,37.4,35.0,29.59,SE,145,0.0,0.0,91,0.00,,---,0.00,VWS V13.01,2013-10-09 14:29:00,
2013-10-09 07:30:00,37.4,35.0,29.59,SE,145,0.0,0.0,91,0.00,,---,0.00,VWS V13.01,2013-10-09 14:30:00,
2013-10-09 07:32:00,37.4,35.0,29.59,SE,145,0.0,0.0,91,0.00,,---,0.00,VWS V13.01,2013-10-09 14:32:00,
2013-10-09 07:33:00,37.4,35.0,29.59,SE,145,0.0,0.0,91,0.00,,---,0.00,VWS V13.01,2013-10-09 14:33:00,
2013-10-09 07:34:00,37.2,34.8,29.59,SE,145,0.0,0.0,91,0.00,,---,0.00,VWS V13.01,2013-10-09 14:34:00,
2013-10-09 07:35:00,37.2,34.8,29.59,SE,145,0.0,0.0,91,0.00,,---,0.00,VWS V13.01,2013-10-09 14:35:00,
2013-10-09 07:37:00,37.2,35.1,29.59,SE,145,0.0,0.0,92,0.00,,---,0.00,VWS V13.01,2013-10-09 14:37:00,
2013-10-09 07:38:00,37.2,35.1,29.59,SE,145,0.0,0.0,92,0.00,,---,0.00,VWS V13.01,2013-10-09 14:38:00,
2013-10-09 07:39:00,37.2,35.1,29.59,SE,145,0.0,0.0,92,0.00,,---,0.00,VWS V13.01,2013-10-09 14:39:00,
2013-10-09 07:40:00,37.2,35.1,29.59,SE,145,0.0,0.0,92,0.00,,---,0.00,VWS V13.01,2013-10-09 14:40:00,
2013-10-09 07:42:00,37.4,35.0,29.59,SE,145,0.0,0.0,91,0.00,,---,0.00,VWS V13.01,2013-10-09 14:42:00,
2013-10-09 07:43:00,37.4,35.0,29.59,SE,145,0.0,0.0,91,0.00,,---,0.00,VWS V13.01,2013-10-09 14:43:00,
2013-10-09 07:44:00,37.4,35.0,29.59,SE,145,0.0,0.0,91,0.00,,---,0.00,VWS V13.01,2013-10-09 14:44:00,
2013-10-09 07:45:00,37.4,35.0,29.59,SE,145,0.0,0.0,91,0.00,,---,0.00,VWS V13.01,2013-10-09 14:45:00,
2013-10-09 07:48:00,37.4,35.0,29.62,SE,145,0.0,0.0,91,0.00,,---,0.00,VWS V13.01,2013-10-09 14:48:00,
2013-10-09 07:49:00,37.4,35.0,29.62,SE,145,0.0,0.0,91,0.00,,---,0.00,VWS V13.01,2013-10-09 14:49:00,
2013-10-09 07:50:00,37.4,35.0,29.62,SE,145,0.0,0.0,91,0.00,,---,0.00,VWS V13.01,2013-10-09 14:50:00,
2013-10-09 07:53:00,37.2,35.1,29.62,SE,145,0.0,0.0,92,0.00,,---,0.00,VWS V13.01,2013-10-09 14:53:00,
2013-10-09 07:54:00,37.2,35.1,29.62,SE,145,0.0,0.0,92,0.00,,---,0.00,VWS V13.01,2013-10-09 14:54:00,
2013-10-09 07:55:00,37.2,35.1,29.62,SE,145,0.0,0.0,92,0.00,,---,0.00,VWS V13.01,2013-10-09 14:55:00,
2013-10-09 07:58:00,37.2,35.1,29.62,SE,145,0.0,0.0,92,0.00,,---,0.00,VWS V13.01,2013-10-09 14:58:00,
2013-10-09 07:59:00,37.2,35.1,29.62,SE,145,0.0,0.0,92,0.00,,---,0.00,VWS V13.01,2013-10-09 14:59:00,
2013-10-09 08:00:00,37.2,35.1,29.62,SE,145,0.0,0.0,92,0.00,,---,0.00,VWS V13.01,2013-10-09 15:00:00,
2013-10-09 08:03:00,37.2,35.1,29.59,SE,145,0.0,0.0,92,0.00,,---,0.00,VWS V13.01,2013-10-09 15:03:00,
2013-10-09 08:04:00,37.2,35.1,29.59,SE,145,0.0,0.0,92,0.00,,---,0.00,VWS V13.01,2013-10-09 15:04:00,
2013-10-09 08:05:00,37.2,35.1,29.59,SE,145,0.0,0.0,92,0.00,,---,0.00,VWS V13.01,2013-10-09 15:05:00,
2013-10-09 08:06:00,37.2,35.1,29.59,SE,145,0.0,0.0,92,0.00,,---,0.00,VWS V13.01,2013-10-09 15:06:00,
2013-10-09 08:08:00,37.2,35.1,29.59,SE,145,0.0,0.0,92,0.00,,---,0.00,VWS V13.01,2013-10-09 15:08:00,
2013-10-09 08:09:00,37.2,35.1,29.59,SE,145,0.0,0.0,92,0.00,,---,0.00,VWS V13.01,2013-10-09 15:09:00,
2013-10-09 08:10:00,37.2,35.1,29.59,SE,145,0.0,0.0,92,0.00,,---,0.00,VWS V13.01,2013-10-09 15:10:00,
2013-10-09 08:11:00,37.4,35.3,29.59,SE,145,0.0,0.0,92,0.00,,---,0.00,VWS V13.01,2013-10-09 15:11:00,
2013-10-09 08:13:00,37.4,35.3,29.59,SE,145,0.0,0.0,92,0.00,,---,0.00,VWS V13.01,2013-10-09 15:13:00,
2013-10-09 08:14:00,37.4,35.3,29.59,SE,145,0.0,0.0,92,0.00,,---,0.00,VWS V13.01,2013-10-09 15:14:00,
2013-10-09 08:15:00,37.4,35.3,29.59,SE,145,0.0,0.0,92,0.00,,---,0.00,VWS V13.01,2013-10-09 15:15:00,
2013-10-09 08:16:00,37.6,35.5,29.59,SE,145,0.0,0.0,92,0.00,,---,0.00,VWS V13.01,2013-10-09 15:16:00,
2013-10-09 08:18:00,37.6,35.5,29.62,SE,145,0.0,0.0,92,0.00,,---,0.00,VWS V13.01,2013-10-09 15:18:00,
2013-10-09 08:19:00,37.6,35.5,29.62,SE,145,0.0,0.0,92,0.00,,---,0.00,VWS V13.01,2013-10-09 15:19:00,
2013-10-09 08:20:00,37.6,35.5,29.62,SE,145,0.0,0.0,92,0.00,,---,0.00,VWS V13.01,2013-10-09 15:20:00,
2013-10-09 08:21:00,37.6,35.5,29.62,SE,145,0.0,0.0,92,0.00,,---,0.00,VWS V13.01,2013-10-09 15:21:00,
2013-10-09 08:23:00,37.8,35.7,29.62,SE,145,0.0,0.0,92,0.00,,---,0.00,VWS V13.01,2013-10-09 15:23:00,
2013-10-09 08:24:00,37.8,35.7,29.62,SE,145,0.0,0.0,92,0.00,,---,0.00,VWS V13.01,2013-10-09 15:24:00,
2013-10-09 08:25:00,37.8,35.7,29.62,SE,145,0.0,0.0,92,0.00,,---,0.00,VWS V13.01,2013-10-09 15:25:00,
2013-10-09 08:26:00,37.8,35.7,29.62,SE,145,0.0,0.0,92,0.00,,---,0.00,VWS V13.01,2013-10-09 15:26:00,
2013-10-09 08:29:00,37.9,35.8,29.62,SE,145,0.0,0.0,92,0.00,,---,0.00,VWS V13.01,2013-10-09 15:29:00,
2013-10-09 08:30:00,37.9,36.1,29.62,SE,145,0.0,0.0,93,0.00,,---,0.00,VWS V13.01,2013-10-09 15:30:00,
2013-10-09 08:31:00,37.9,36.1,29.62,SE,145,0.0,0.0,93,0.00,,---,0.00,VWS V13.01,2013-10-09 15:31:00,
2013-10-09 08:34:00,38.1,36.3,29.59,SE,145,0.0,0.0,93,0.00,,---,0.00,VWS V13.01,2013-10-09 15:34:00,
2013-10-09 08:36:00,38.3,36.5,29.59,SE,145,0.0,0.0,93,0.00,,---,0.00,VWS V13.01,2013-10-09 15:36:00,
2013-10-09 08:39:00,38.7,36.8,29.59,SE,145,0.0,0.0,93,0.00,,---,0.00,VWS V13.01,2013-10-09 15:39:00,
2013-10-09 08:40:00,38.7,36.8,29.59,SE,145,0.0,0.0,93,0.00,,---,0.00,VWS V13.01,2013-10-09 15:40:00,
2013-10-09 08:41:00,38.7,36.8,29.59,SE,145,0.0,0.0,93,0.00,,---,0.00,VWS V13.01,2013-10-09 15:41:00,
2013-10-09 08:44:00,38.8,37.3,29.59,SE,145,0.0,0.0,94,0.00,,---,0.00,VWS V13.01,2013-10-09 15:44:00,
2013-10-09 08:45:00,38.8,37.3,29.59,SE,145,0.0,0.0,94,0.00,,---,0.00,VWS V13.01,2013-10-09 15:45:00,
2013-10-09 08:46:00,38.8,37.3,29.59,SE,145,0.0,0.0,94,0.00,,---,0.00,VWS V13.01,2013-10-09 15:46:00,
2013-10-09 08:47:00,38.8,37.3,29.59,SE,145,0.0,0.0,94,0.00,,---,0.00,VWS V13.01,2013-10-09 15:47:00,
2013-10-09 08:49:00,38.8,37.3,29.59,SE,145,0.0,0.0,94,0.00,,---,0.00,VWS V13.01,2013-10-09 15:49:00,
2013-10-09 08:50:00,38.8,37.3,29.59,SE,145,0.0,0.0,94,0.00,,---,0.00,VWS V13.01,2013-10-09 15:50:00,
2013-10-09 08:51:00,39.0,37.4,29.59,SE,145,0.0,0.0,94,0.00,,---,0.00,VWS V13.01,2013-10-09 15:51:00,
2013-10-09 08:52:00,39.0,37.4,29.59,SSW,204,0.0,0.0,94,0.00,,---,0.00,VWS V13.01,2013-10-09 15:52:00,
2013-10-09 08:53:00,39.0,37.4,29.59,SSW,203,0.0,0.0,94,0.00,,---,0.00,VWS V13.01,2013-10-09 15:53:00,
2013-10-09 08:54:00,39.2,37.6,29.59,SSW,203,0.0,0.0,94,0.00,,---,0.00,VWS V13.01,2013-10-09 15:54:00,
2013-10-09 08:55:00,39.2,37.6,29.59,SSW,203,0.0,0.0,94,0.00,,---,0.00,VWS V13.01,2013-10-09 15:55:00,
2013-10-09 08:56:00,39.4,37.8,29.59,SSW,203,0.0,0.0,94,0.00,,---,0.00,VWS V13.01,2013-10-09 15:56:00,
2013-10-09 08:57:00,39.4,37.8,29.59,SSW,203,0.0,0.0,94,0.00,,---,0.00,VWS V13.01,2013-10-09 15:57:00,
2013-10-09 08:58:00,39.4,37.8,29.59,SSW,203,0.0,0.0,94,0.00,,---,0.00,VWS V13.01,2013-10-09 15:58:00,
2013-10-09 08:59:00,39.4,37.8,29.59,SSW,203,0.0,0.0,94,0.00,,---,0.00,VWS V13.01,2013-10-09 15:59:00,
2013-10-09 09:00:00,39.6,38.0,29.59,SSW,203,0.0,0.0,94,0.00,,---,0.00,VWS V13.01,2013-10-09 16:00:00,
2013-10-09 09:02:00,39.7,38.2,29.59,SSW,204,0.0,0.0,94,0.00,,---,0.00,VWS V13.01,2013-10-09 16:02:00,
2013-10-09 09:03:00,39.7,38.2,29.59,SE,137,0.0,0.0,94,0.00,,---,0.00,VWS V13.01,2013-10-09 16:03:00,
2013-10-09 09:04:00,39.7,38.2,29.59,ENE,60,0.0,0.0,94,0.00,,---,0.00,VWS V13.01,2013-10-09 16:04:00,
2013-10-09 09:05:00,39.9,38.3,29.59,NE,44,0.0,0.0,94,0.00,,---,0.00,VWS V13.01,2013-10-09 16:05:00,
2013-10-09 09:07:00,39.9,38.3,29.59,ENE,60,0.0,0.0,94,0.00,,---,0.00,VWS V13.01,2013-10-09 16:07:00,
2013-10-09 09:08:00,40.1,38.5,29.59,ENE,60,0.0,0.0,94,0.00,,---,0.00,VWS V13.01,2013-10-09 16:08:00,
2013-10-09 09:09:00,40.3,38.7,29.59,ENE,60,0.0,0.0,94,0.00,,---,0.00,VWS V13.01,2013-10-09 16:09:00,
2013-10-09 09:10:00,40.5,38.9,29.59,ENE,60,0.0,0.0,94,0.00,,---,0.00,VWS V13.01,2013-10-09 16:10:00,
2013-10-09 09:12:00,40.5,38.9,29.59,SW,231,0.0,0.0,94,0.00,,---,0.00,VWS V13.01,2013-10-09 16:12:00,
2013-10-09 09:13:00,40.6,39.0,29.59,SW,231,0.0,0.0,94,0.00,,---,0.00,VWS V13.01,2013-10-09 16:13:00,
2013-10-09 09:14:00,40.6,39.3,29.59,SW,232,0.0,0.0,95,0.00,,---,0.00,VWS V13.01,2013-10-09 16:14:00,
2013-10-09 09:15:00,40.8,39.5,29.59,SE,135,0.0,0.0,95,0.00,,---,0.00,VWS V13.01,2013-10-09 16:15:00,
2013-10-09 09:17:00,41.0,39.4,29.59,SE,135,0.0,0.0,94,0.00,,---,0.00,VWS V13.01,2013-10-09 16:17:00,
2013-10-09 09:19:00,41.0,39.4,29.59,SW,216,0.0,0.0,94,0.00,,---,0.00,VWS V13.01,2013-10-09 16:19:00,
2013-10-09 09:20:00,41.2,39.6,29.59,SW,216,0.0,0.0,94,0.00,,---,0.00,VWS V13.01,2013-10-09 16:20:00,
2013-10-09 09:22:00,41.4,39.8,29.59,SW,216,0.0,0.0,94,0.00,,---,0.00,VWS V13.01,2013-10-09 16:22:00,
2013-10-09 09:24:00,41.5,40.0,29.59,SW,216,0.0,0.0,94,0.00,,---,0.00,VWS V13.01,2013-10-09 16:24:00,
2013-10-09 09:25:00,41.5,40.0,29.59,SW,216,0.0,0.0,94,0.00,,---,0.00,VWS V13.01,2013-10-09 16:25:00,
2013-10-09 09:27:00,41.7,40.1,29.59,SW,216,0.0,0.0,94,0.00,,---,0.00,VWS V13.01,2013-10-09 16:27:00,
2013-10-09 09:28:00,41.7,40.1,29.59,East,85,0.0,0.0,94,0.00,,---,0.00,VWS V13.01,2013-10-09 16:28:00,
2013-10-09 09:29:00,42.1,40.5,29.59,East,85,0.0,0.0,94,0.00,,---,0.00,VWS V13.01,2013-10-09 16:29:00,
2013-10-09 09:30:00,42.1,40.5,29.59,East,85,0.0,0.0,94,0.00,,---,0.00,VWS V13.01,2013-10-09 16:30:00,
2013-10-09 09:32:00,42.3,40.7,29.59,East,85,0.0,0.0,94,0.00,,---,0.00,VWS V13.01,2013-10-09 16:32:00,
2013-10-09 09:33:00,42.3,40.7,29.59,East,91,0.0,0.0,94,0.00,,---,0.00,VWS V13.01,2013-10-09 16:33:00,
2013-10-09 09:34:00,42.6,41.0,29.59,SE,139,0.0,0.0,94,0.00,,---,0.00,VWS V13.01,2013-10-09 16:34:00,
2013-10-09 09:35:00,42.6,41.0,29.59,SE,139,0.0,0.0,94,0.00,,---,0.00,VWS V13.01,2013-10-09 16:35:00,
2013-10-09 09:37:00,42.8,41.2,29.59,SE,139,0.0,0.0,94,0.00,,---,0.00,VWS V13.01,2013-10-09 16:37:00,
2013-10-09 09:38:00,42.8,41.2,29.59,SE,139,0.0,0.0,94,0.00,,---,0.00,VWS V13.01,2013-10-09 16:38:00,
2013-10-09 09:39:00,42.8,41.2,29.59,SE,139,0.0,0.0,94,0.00,,---,0.00,VWS V13.01,2013-10-09 16:39:00,
2013-10-09 09:40:00,43.0,41.4,29.59,SE,139,0.0,0.0,94,0.00,,---,0.00,VWS V13.01,2013-10-09 16:40:00,
2013-10-09 09:43:00,43.5,41.9,29.59,ESE,119,0.0,0.0,94,0.00,,---,0.00,VWS V13.01,2013-10-09 16:43:00,
2013-10-09 09:44:00,43.7,42.1,29.59,East,89,0.0,0.0,94,0.00,,---,0.00,VWS V13.01,2013-10-09 16:44:00,
2013-10-09 09:45:00,43.7,42.1,29.59,East,89,0.0,0.0,94,0.00,,---,0.00,VWS V13.01,2013-10-09 16:45:00,
2013-10-09 09:46:00,43.7,42.1,29.59,East,89,0.0,0.0,94,0.00,,---,0.00,VWS V13.01,2013-10-09 16:46:00,
2013-10-09 09:48:00,44.1,42.5,29.59,East,89,0.0,0.0,94,0.00,,---,0.00,VWS V13.01,2013-10-09 16:48:00,
2013-10-09 09:49:00,44.2,42.6,29.59,East,89,0.0,0.0,94,0.00,,---,0.00,VWS V13.01,2013-10-09 16:49:00,
2013-10-09 09:50:00,44.2,42.6,29.59,East,89,0.0,0.0,94,0.00,,---,0.00,VWS V13.01,2013-10-09 16:50:00,
2013-10-09 09:51:00,44.2,42.3,29.59,East,89,0.0,0.0,93,0.00,,---,0.00,VWS V13.01,2013-10-09 16:51:00,
2013-10-09 09:53:00,44.6,42.7,29.59,East,89,0.0,0.0,93,0.00,,---,0.00,VWS V13.01,2013-10-09 16:53:00,
2013-10-09 09:54:00,44.8,42.9,29.59,East,89,0.0,0.0,93,0.00,,---,0.00,VWS V13.01,2013-10-09 16:54:00,
2013-10-09 09:55:00,44.8,42.9,29.59,East,89,0.0,0.0,93,0.00,,---,0.00,VWS V13.01,2013-10-09 16:55:00,
2013-10-09 09:56:00,45.1,43.2,29.59,East,89,0.0,0.0,93,0.00,,---,0.00,VWS V13.01,2013-10-09 16:56:00,
2013-10-09 09:58:00,45.3,43.4,29.59,East,80,0.0,0.0,93,0.00,,---,0.00,VWS V13.01,2013-10-09 16:58:00,
2013-10-09 09:59:00,45.5,43.6,29.59,East,80,0.0,0.0,93,0.00,,---,0.00,VWS V13.01,2013-10-09 16:59:00,
2013-10-09 10:00:00,45.5,43.6,29.59,East,80,0.0,0.0,93,0.00,,---,0.00,VWS V13.01,2013-10-09 17:00:00,
2013-10-09 10:01:00,45.5,43.6,29.59,East,80,0.0,0.0,93,0.00,,---,0.00,VWS V13.01,2013-10-09 17:01:00,
2013-10-09 10:03:00,45.5,43.3,29.59,NE,41,0.0,0.0,92,0.00,,---,0.00,VWS V13.01,2013-10-09 17:03:00,
2013-10-09 10:05:00,45.7,43.8,29.59,NE,36,0.0,0.0,93,0.00,,---,0.00,VWS V13.01,2013-10-09 17:05:00,
2013-10-09 10:06:00,45.7,43.8,29.59,NE,36,0.0,0.0,93,0.00,,---,0.00,VWS V13.01,2013-10-09 17:06:00,
2013-10-09 10:08:00,45.9,44.0,29.59,NE,36,0.0,0.0,93,0.00,,---,0.00,VWS V13.01,2013-10-09 17:08:00,
2013-10-09 10:10:00,46.0,44.1,29.59,NNE,30,0.0,0.0,93,0.00,,---,0.00,VWS V13.01,2013-10-09 17:10:00,
2013-10-09 10:11:00,46.0,44.1,29.59,NNE,30,0.0,0.0,93,0.00,,---,0.00,VWS V13.01,2013-10-09 17:11:00,
2013-10-09 10:12:00,46.2,44.3,29.59,NNE,30,0.0,0.0,93,0.00,,---,0.00,VWS V13.01,2013-10-09 17:12:00,
2013-10-09 10:13:00,46.2,44.0,29.59,NNE,28,0.0,0.0,92,0.00,,---,0.00,VWS V13.01,2013-10-09 17:13:00,
2013-10-09 10:15:00,46.4,44.2,29.59,NNE,14,0.0,0.0,92,0.00,,---,0.00,VWS V13.01,2013-10-09 17:15:00,
2013-10-09 10:17:00,46.4,44.2,29.59,NE,47,0.0,0.0,92,0.00,,---,0.00,VWS V13.01,2013-10-09 17:17:00,
2013-10-09 10:18:00,46.6,44.4,29.59,NE,47,0.0,0.0,92,0.00,,---,0.00,VWS V13.01,2013-10-09 17:18:00,
2013-10-09 10:20:00,46.6,44.4,29.59,NE,47,0.0,0.0,92,0.00,,---,0.00,VWS V13.01,2013-10-09 17:20:00,
2013-10-09 10:22:00,46.6,44.4,29.59,NE,47,0.0,0.0,92,0.00,,---,0.00,VWS V13.01,2013-10-09 17:22:00,
2013-10-09 10:23:00,46.6,44.4,29.59,NE,47,0.0,0.0,92,0.00,,---,0.00,VWS V13.01,2013-10-09 17:23:00,
2013-10-09 10:25:00,46.9,44.7,29.59,ESE,102,0.0,0.0,92,0.00,,---,0.00,VWS V13.01,2013-10-09 17:25:00,
2013-10-09 10:26:00,47.1,44.9,29.59,ESE,102,0.0,0.0,92,0.00,,---,0.00,VWS V13.01,2013-10-09 17:26:00,
2013-10-09 10:27:00,47.1,44.9,29.59,ESE,116,0.0,0.0,92,0.00,,---,0.00,VWS V13.01,2013-10-09 17:27:00,
2013-10-09 10:28:00,47.3,45.1,29.59,ESE,116,0.0,0.0,92,0.00,,---,0.00,VWS V13.01,2013-10-09 17:28:00,
2013-10-09 10:29:00,47.7,45.5,29.59,ESE,116,0.0,0.0,92,0.00,,---,0.00,VWS V13.01,2013-10-09 17:29:00,
2013-10-09 10:31:00,48.0,45.8,29.59,ESE,116,0.0,0.0,92,0.00,,---,0.00,VWS V13.01,2013-10-09 17:31:00,
2013-10-09 10:32:00,48.0,45.5,29.59,ESE,110,0.0,0.0,91,0.00,,---,0.00,VWS V13.01,2013-10-09 17:32:00,
2013-10-09 10:33:00,48.2,45.7,29.59,ESE,110,0.0,0.0,91,0.00,,---,0.00,VWS V13.01,2013-10-09 17:33:00,
2013-10-09 10:34:00,48.6,46.1,29.59,ESE,110,0.0,0.0,91,0.00,,---,0.00,VWS V13.01,2013-10-09 17:34:00,
2013-10-09 10:36:00,48.7,46.2,29.59,ESE,110,0.0,0.0,91,0.00,,---,0.00,VWS V13.01,2013-10-09 17:36:00,
2013-10-09 10:37:00,48.9,46.4,29.59,ESE,110,0.0,0.0,91,0.00,,---,0.00,VWS V13.01,2013-10-09 17:37:00,
2013-10-09 10:38:00,49.1,46.6,29.59,ESE,110,0.0,0.0,91,0.00,,---,0.00,VWS V13.01,2013-10-09 17:38:00,
2013-10-09 10:39:00,49.3,46.5,29.59,SSW,198,0.0,0.0,90,0.00,,---,0.00,VWS V13.01,2013-10-09 17:39:00,
2013-10-09 10:41:00,49.3,46.5,29.59,SSW,195,0.0,0.0,90,0.00,,---,0.00,VWS V13.01,2013-10-09 17:41:00,
2013-10-09 10:42:00,49.8,47.0,29.59,SE,127,2.7,2.7,90,0.00,,---,0.00,VWS V13.01,2013-10-09 17:42:00,
2013-10-09 10:43:00,50.0,47.2,29.59,SE,142,2.2,2.7,90,0.00,,---,0.00,VWS V13.01,2013-10-09 17:43:00,
2013-10-09 10:44:00,50.2,47.4,29.59,SE,139,0.0,2.2,90,0.00,,---,0.00,VWS V13.01,2013-10-09 17:44:00,
2013-10-09 10:46:00,50.2,47.4,29.59,East,100,0.0,0.0,90,0.00,,---,0.00,VWS V13.01,2013-10-09 17:46:00,
2013-10-09 10:47:00,50.4,47.2,29.59,East,100,0.0,0.0,89,0.00,,---,0.00,VWS V13.01,2013-10-09 17:47:00,
2013-10-09 10:48:00,50.5,47.4,29.59,East,99,0.0,0.0,89,0.00,,---,0.00,VWS V13.01,2013-10-09 17:48:00,
2013-10-09 10:50:00,50.5,47.4,29.59,East,99,0.0,0.0,89,0.00,,---,0.00,VWS V13.01,2013-10-09 17:50:00,
2013-10-09 10:51:00,50.5,47.4,29.59,East,99,0.0,0.0,89,0.00,,---,0.00,VWS V13.01,2013-10-09 17:51:00,
2013-10-09 10:52:00,50.9,47.8,29.59,East,99,0.0,0.0,89,0.00,,---,0.00,VWS V13.01,2013-10-09 17:52:00,
2013-10-09 10:53:00,50.9,47.8,29.59,East,100,0.0,0.0,89,0.00,,---,0.00,VWS V13.01,2013-10-09 17:53:00,
2013-10-09 10:55:00,51.1,47.7,29.59,East,99,0.0,0.0,88,0.00,,---,0.00,VWS V13.01,2013-10-09 17:55:00,
2013-10-09 10:56:00,51.1,47.7,29.59,ESE,102,0.0,0.0,88,0.00,,---,0.00,VWS V13.01,2013-10-09 17:56:00,
2013-10-09 10:57:00,51.3,47.8,29.59,WNW,296,2.2,2.7,88,0.00,,---,0.00,VWS V13.01,2013-10-09 17:57:00,
2013-10-09 10:58:00,51.3,47.8,29.59,WNW,298,0.0,0.0,88,0.00,,---,0.00,VWS V13.01,2013-10-09 17:58:00,
2013-10-09 11:00:00,51.6,48.2,29.59,East,99,0.0,0.0,88,0.00,,---,0.00,VWS V13.01,2013-10-09 18:00:00,
2013-10-09 11:01:00,51.8,48.1,29.59,ENE,71,0.0,2.2,87,0.00,,---,0.00,VWS V13.01,2013-10-09 18:01:00,
2013-10-09 11:02:00,51.8,48.1,29.59,NNE,31,3.6,3.6,87,0.00,,---,0.00,VWS V13.01,2013-10-09 18:02:00,
2013-10-09 11:03:00,52.0,48.2,29.59,NE,49,3.6,3.6,87,0.00,,---,0.00,VWS V13.01,2013-10-09 18:03:00,
2013-10-09 11:05:00,52.2,48.1,29.59,NE,38,0.0,0.0,86,0.00,,---,0.00,VWS V13.01,2013-10-09 18:05:00,
2013-10-09 11:06:00,52.3,48.3,29.59,NNE,29,0.0,0.0,86,0.00,,---,0.00,VWS V13.01,2013-10-09 18:06:00,
2013-10-09 11:08:00,52.5,48.2,29.59,South,184,0.0,2.7,85,0.00,,---,0.00,VWS V13.01,2013-10-09 18:08:00,
2013-10-09 11:10:00,53.1,48.7,29.59,SSE,161,0.0,0.0,85,0.00,,---,0.00,VWS V13.01,2013-10-09 18:10:00,
2013-10-09 11:11:00,53.2,48.8,29.59,West,270,0.0,0.0,85,0.00,,---,0.00,VWS V13.01,2013-10-09 18:11:00,
2013-10-09 11:13:00,53.2,48.8,29.59,NW,310,0.0,2.2,85,0.00,,---,0.00,VWS V13.01,2013-10-09 18:13:00,
2013-10-09 11:14:00,53.2,48.8,29.59,NW,310,0.0,2.2,85,0.00,,---,0.00,VWS V13.01,2013-10-09 18:14:00,
2013-10-09 11:15:00,53.2,48.5,29.59,NW,311,0.0,0.0,84,0.00,,---,0.00,VWS V13.01,2013-10-09 18:15:00,
2013-10-09 11:16:00,53.2,48.5,29.59,NW,311,0.0,0.0,84,0.00,,---,0.00,VWS V13.01,2013-10-09 18:16:00,
2013-10-09 11:18:00,53.1,48.4,29.59,NW,306,0.0,0.0,84,0.00,,---,0.00,VWS V13.01,2013-10-09 18:18:00,
2013-10-09 11:19:00,53.1,48.4,29.59,NW,306,0.0,0.0,84,0.00,,---,0.00,VWS V13.01,2013-10-09 18:19:00,
2013-10-09 11:20:00,53.1,48.4,29.59,NW,306,0.0,0.0,84,0.00,,---,0.00,VWS V13.01,2013-10-09 18:20:00,
2013-10-09 11:21:00,53.2,48.5,29.59,NW,306,0.0,0.0,84,0.00,,---,0.00,VWS V13.01,2013-10-09 18:21:00,
2013-10-09 11:22:00,53.2,48.5,29.59,NW,307,0.0,0.0,84,0.00,,---,0.00,VWS V13.01,2013-10-09 18:22:00,
2013-10-09 11:23:00,53.1,48.4,29.59,NW,307,0.0,0.0,84,0.00,,---,0.00,VWS V13.01,2013-10-09 18:23:00,
2013-10-09 11:24:00,53.1,48.0,29.59,NW,307,0.0,0.0,83,0.00,,---,0.00,VWS V13.01,2013-10-09 18:24:00,
2013-10-09 11:25:00,53.1,48.0,29.59,NW,307,0.0,0.0,83,0.00,,---,0.00,VWS V13.01,2013-10-09 18:25:00,
2013-10-09 11:26:00,53.1,48.0,29.59,West,279,2.2,2.2,83,0.00,,---,0.00,VWS V13.01,2013-10-09 18:26:00,
2013-10-09 11:27:00,52.9,47.9,29.59,SW,235,2.7,2.7,83,0.00,,---,0.00,VWS V13.01,2013-10-09 18:27:00,
2013-10-09 11:28:00,53.1,48.0,29.59,North,11,2.7,3.6,83,0.00,,---,0.00,VWS V13.01,2013-10-09 18:28:00,
2013-10-09 11:29:00,53.1,48.0,29.59,North,11,2.7,2.7,83,0.00,,---,0.00,VWS V13.01,2013-10-09 18:29:00,
2013-10-09 11:30:00,53.1,47.7,29.59,ESE,113,0.0,2.7,82,0.00,,---,0.00,VWS V13.01,2013-10-09 18:30:00,
2013-10-09 11:32:00,53.4,48.4,29.59,ESE,114,0.0,0.0,83,0.00,,---,0.00,VWS V13.01,2013-10-09 18:32:00,
2013-10-09 11:34:00,53.8,48.4,29.59,WSW,240,3.1,3.1,82,0.00,,---,0.00,VWS V13.01,2013-10-09 18:34:00,
2013-10-09 11:35:00,54.0,48.6,29.59,West,267,5.4,5.4,82,0.00,,---,0.00,VWS V13.01,2013-10-09 18:35:00,
2013-10-09 11:37:00,54.0,48.3,29.59,WSW,255,0.0,3.6,81,0.00,,---,0.00,VWS V13.01,2013-10-09 18:37:00,
2013-10-09 11:39:00,54.1,48.5,29.59,South,175,2.2,2.7,81,0.00,,---,0.00,VWS V13.01,2013-10-09 18:39:00,
2013-10-09 11:40:00,54.1,48.5,29.59,SW,234,3.1,3.1,81,0.00,,---,0.00,VWS V13.01,2013-10-09 18:40:00,
2013-10-09 11:42:00,54.3,48.3,29.59,WSW,240,3.1,3.6,80,0.00,,---,0.00,VWS V13.01,2013-10-09 18:42:00,
2013-10-09 11:44:00,54.1,47.8,29.59,WSW,251,0.0,2.2,79,0.00,,---,0.00,VWS V13.01,2013-10-09 18:44:00,
2013-10-09 11:45:00,54.3,48.0,29.59,WSW,254,4.9,4.9,79,0.00,,---,0.00,VWS V13.01,2013-10-09 18:45:00,
2013-10-09 11:47:00,54.5,48.1,29.59,West,272,2.2,3.1,79,0.00,,---,0.00,VWS V13.01,2013-10-09 18:47:00,
2013-10-09 11:49:00,54.7,48.0,29.59,SW,226,3.6,3.6,78,0.00,,---,0.00,VWS V13.01,2013-10-09 18:49:00,
2013-10-09 11:50:00,54.7,48.0,29.59,SW,217,3.1,4.0,78,0.00,,---,0.00,VWS V13.01,2013-10-09 18:50:00,
2013-10-09 11:51:00,54.7,48.0,29.59,SE,138,2.2,2.2,78,0.00,,---,0.00,VWS V13.01,2013-10-09 18:51:00,
2013-10-09 11:52:00,54.9,47.8,29.59,SE,138,0.0,0.0,77,0.00,,---,0.00,VWS V13.01,2013-10-09 18:52:00,
2013-10-09 11:53:00,54.9,47.8,29.59,SE,138,0.0,0.0,77,0.00,,---,0.00,VWS V13.01,2013-10-09 18:53:00,
2013-10-09 11:54:00,55.0,48.0,29.59,West,276,3.1,3.1,77,0.00,,---,0.00,VWS V13.01,2013-10-09 18:54:00,
2013-10-09 11:55:00,55.0,48.0,29.59,West,266,2.7,3.1,77,0.00,,---,0.00,VWS V13.01,2013-10-09 18:55:00,
2013-10-09 11:56:00,55.0,48.0,29.59,West,266,3.1,4.9,77,0.00,,---,0.00,VWS V13.01,2013-10-09 18:56:00,
2013-10-09 11:58:00,54.7,47.3,29.59,West,271,0.0,3.1,76,0.00,,---,0.00,VWS V13.01,2013-10-09 18:58:00,
2013-10-09 11:59:00,54.7,47.3,29.59,WSW,248,0.0,0.0,76,0.00,,---,0.00,VWS V13.01,2013-10-09 18:59:00,
2013-10-09 12:01:00,55.0,47.6,29.59,SE,140,0.0,2.7,76,0.00,,---,0.00,VWS V13.01,2013-10-09 19:01:00,
2013-10-09 12:02:00,55.0,47.6,29.56,SE,140,0.0,2.7,76,0.00,,---,0.00,VWS V13.01,2013-10-09 19:02:00,
2013-10-09 12:03:00,55.4,48.0,29.56,SSW,194,0.0,0.0,76,0.00,,---,0.00,VWS V13.01,2013-10-09 19:03:00,
2013-10-09 12:04:00,55.6,48.2,29.56,SW,233,0.0,2.7,76,0.00,,---,0.00,VWS V13.01,2013-10-09 19:04:00,
2013-10-09 12:06:00,55.6,48.2,29.56,SW,233,0.0,0.0,76,0.00,,---,0.00,VWS V13.01,2013-10-09 19:06:00,
2013-10-09 12:07:00,55.6,48.2,29.56,SSE,153,2.2,2.2,76,0.00,,---,0.00,VWS V13.01,2013-10-09 19:07:00,
2013-10-09 12:08:00,55.6,48.2,29.56,SSE,153,0.0,0.0,76,0.00,,---,0.00,VWS V13.01,2013-10-09 19:08:00,
2013-10-09 12:09:00,55.8,48.7,29.56,SE,127,2.7,2.7,77,0.00,,---,0.00,VWS V13.01,2013-10-09 19:09:00,
2013-10-09 12:10:00,55.8,48.7,29.56,SE,127,2.7,2.7,77,0.00,,---,0.00,VWS V13.01,2013-10-09 19:10:00,
2013-10-09 12:11:00,55.9,48.8,29.56,SSE,150,0.0,0.0,77,0.00,,---,0.00,VWS V13.01,2013-10-09 19:11:00,
2013-10-09 12:12:00,56.1,49.0,29.56,SSE,150,0.0,0.0,77,0.00,,---,0.00,VWS V13.01,2013-10-09 19:12:00,
2013-10-09 12:13:00,56.1,49.0,29.56,SSE,150,0.0,0.0,77,0.00,,---,0.00,VWS V13.01,2013-10-09 19:13:00,
2013-10-09 12:15:00,56.1,48.7,29.56,SSE,150,0.0,0.0,76,0.00,,---,0.00,VWS V13.01,2013-10-09 19:15:00,
2013-10-09 12:16:00,56.3,48.8,29.56,ESE,116,0.0,0.0,76,0.00,,---,0.00,VWS V13.01,2013-10-09 19:16:00,
2013-10-09 12:17:00,56.1,48.7,29.56,ESE,116,0.0,0.0,76,0.00,,---,0.00,VWS V13.01,2013-10-09 19:17:00,
2013-10-09 12:18:00,55.9,48.5,29.56,East,100,2.7,2.7,76,0.00,,---,0.00,VWS V13.01,2013-10-09 19:18:00,
2013-10-09 12:20:00,56.3,48.8,29.56,East,91,3.1,3.1,76,0.00,,---,0.00,VWS V13.01,2013-10-09 19:20:00,
2013-10-09 12:22:00,56.3,48.5,29.56,ENE,71,3.1,3.1,75,0.00,,---,0.00,VWS V13.01,2013-10-09 19:22:00,
2013-10-09 12:23:00,56.3,48.1,29.56,ENE,78,3.6,3.6,74,0.00,,---,0.00,VWS V13.01,2013-10-09 19:23:00,
2013-10-09 12:24:00,56.3,48.1,29.56,East,80,3.1,3.6,74,0.00,,---,0.00,VWS V13.01,2013-10-09 19:24:00,
2013-10-09 12:25:00,56.3,48.1,29.56,East,83,3.6,4.0,74,0.00,,---,0.00,VWS V13.01,2013-10-09 19:25:00,
2013-10-09 12:27:00,56.5,48.3,29.56,South,172,2.7,2.7,74,0.00,,---,0.00,VWS V13.01,2013-10-09 19:27:00,
2013-10-09 12:29:00,56.5,47.9,29.56,South,184,0.0,0.0,73,0.00,,---,0.00,VWS V13.01,2013-10-09 19:29:00,
2013-10-09 12:30:00,56.5,47.9,29.56,South,184,0.0,0.0,73,0.00,,---,0.00,VWS V13.01,2013-10-09 19:30:00,
2013-10-09 12:32:00,56.7,48.1,29.56,South,184,0.0,0.0,73,0.00,,---,0.00,VWS V13.01,2013-10-09 19:32:00,
2013-10-09 12:33:00,56.7,48.1,29.56,SSE,167,4.0,4.0,73,0.00,,---,0.00,VWS V13.01,2013-10-09 19:33:00,
2013-10-09 12:34:00,56.7,48.1,29.56,SSE,167,2.2,4.0,73,0.00,,---,0.00,VWS V13.01,2013-10-09 19:34:00,
2013-10-09 12:35:00,56.8,48.3,29.56,SSE,167,0.0,0.0,73,0.00,,---,0.00,VWS V13.01,2013-10-09 19:35:00,
2013-10-09 12:37:00,57.0,48.5,29.56,SSE,167,0.0,0.0,73,0.00,,---,0.00,VWS V13.01,2013-10-09 19:37:00,
2013-10-09 12:38:00,57.0,48.5,29.56,SE,124,0.0,0.0,73,0.00,,---,0.00,VWS V13.01,2013-10-09 19:38:00,
2013-10-09 12:39:00,57.0,48.5,29.56,ENE,71,2.7,2.7,73,0.00,,---,0.00,VWS V13.01,2013-10-09 19:39:00,
2013-10-09 12:40:00,57.2,48.3,29.56,ESE,115,0.0,2.7,72,0.00,,---,0.00,VWS V13.01,2013-10-09 19:40:00,
2013-10-09 12:41:00,57.2,48.3,29.56,SSW,210,0.0,2.7,72,0.00,,---,0.00,VWS V13.01,2013-10-09 19:41:00,
2013-10-09 12:42:00,57.0,48.1,29.56,SE,146,0.0,0.0,72,0.00,,---,0.00,VWS V13.01,2013-10-09 19:42:00,
2013-10-09 12:43:00,57.2,48.3,29.56,ESE,108,2.7,2.7,72,0.00,,---,0.00,VWS V13.01,2013-10-09 19:43:00,
2013-10-09 12:44:00,57.2,48.3,29.56,ESE,108,0.0,0.0,72,0.00,,---,0.00,VWS V13.01,2013-10-09 19:44:00,
2013-10-09 12:45:00,57.2,48.3,29.56,ENE,74,2.2,2.2,72,0.00,,---,0.00,VWS V13.01,2013-10-09 19:45:00,
2013-10-09 12:46:00,57.0,48.1,29.56,East,89,2.2,2.7,72,0.00,,---,0.00,VWS V13.01,2013-10-09 19:46:00,
2013-10-09 12:47:00,57.0,48.1,29.56,SE,125,0.0,0.0,72,0.00,,---,0.00,VWS V13.01,2013-10-09 19:47:00,
2013-10-09 12:48:00,57.2,48.3,29.56,WSW,252,3.1,3.1,72,0.00,,---,0.00,VWS V13.01,2013-10-09 19:48:00,
2013-10-09 12:49:00,57.2,47.9,29.56,SW,223,3.6,3.6,71,0.00,,---,0.00,VWS V13.01,2013-10-09 19:49:00,
2013-10-09 12:50:00,57.0,47.7,29.56,SSW,210,3.1,3.1,71,0.00,,---,0.00,VWS V13.01,2013-10-09 19:50:00,
2013-10-09 12:51:00,57.0,47.7,29.56,SSW,210,2.2,3.6,71,0.00,,---,0.00,VWS V13.01,2013-10-09 19:51:00,
2013-10-09 12:52:00,57.0,47.7,29.56,SSW,210,0.0,0.0,71,0.00,,---,0.00,VWS V13.01,2013-10-09 19:52:00,
2013-10-09 12:53:00,57.0,47.7,29.56,SSW,210,0.0,0.0,71,0.00,,---,0.00,VWS V13.01,2013-10-09 19:53:00,
2013-10-09 12:54:00,56.8,47.5,29.56,SSW,210,0.0,0.0,71,0.00,,---,0.00,VWS V13.01,2013-10-09 19:54:00,
2013-10-09 12:55:00,56.5,46.8,29.56,SSW,210,0.0,0.0,70,0.00,,---,0.00,VWS V13.01,2013-10-09 19:55:00,
2013-10-09 12:56:00,56.5,46.8,29.56,SSW,211,0.0,0.0,70,0.00,,---,0.00,VWS V13.01,2013-10-09 19:56:00,
2013-10-09 12:57:00,56.3,46.7,29.56,SW,232,2.7,2.7,70,0.00,,---,0.00,VWS V13.01,2013-10-09 19:57:00,
2013-10-09 12:58:00,56.3,46.7,29.56,SW,232,0.0,0.0,70,0.00,,---,0.00,VWS V13.01,2013-10-09 19:58:00,
2013-10-09 12:59:00,56.5,46.8,29.56,SW,232,0.0,0.0,70,0.00,,---,0.00,VWS V13.01,2013-10-09 19:59:00,
2013-10-09 13:00:00,56.7,47.4,29.56,SW,232,0.0,0.0,71,0.00,,---,0.00,VWS V13.01,2013-10-09 20:00:00,
2013-10-09 13:01:00,56.8,47.5,29.56,WSW,245,0.0,0.0,71,0.00,,---,0.00,VWS V13.01,2013-10-09 20:01:00,
2013-10-09 13:02:00,56.7,47.0,29.53,WSW,247,4.0,4.0,70,0.00,,---,0.00,VWS V13.01,2013-10-09 20:02:00,
2013-10-09 13:03:00,56.7,47.0,29.53,SSW,209,0.0,4.0,70,0.00,,---,0.00,VWS V13.01,2013-10-09 20:03:00,
2013-10-09 13:04:00,56.7,47.0,29.53,SSW,209,0.0,0.0,70,0.00,,---,0.00,VWS V13.01,2013-10-09 20:04:00,
2013-10-09 13:05:00,56.7,47.0,29.53,SSW,209,0.0,2.2,70,0.00,,---,0.00,VWS V13.01,2013-10-09 20:05:00,
2013-10-09 13:06:00,56.7,47.0,29.53,South,191,0.0,0.0,70,0.00,,---,0.00,VWS V13.01,2013-10-09 20:06:00,
2013-10-09 13:07:00,56.8,47.2,29.53,South,188,0.0,0.0,70,0.00,,---,0.00,VWS V13.01,2013-10-09 20:07:00,
2013-10-09 13:08:00,57.0,47.3,29.53,WSW,237,2.7,3.6,70,0.00,,---,0.00,VWS V13.01,2013-10-09 20:08:00,
2013-10-09 13:09:00,57.0,47.3,29.53,WSW,242,4.0,4.0,70,0.00,,---,0.00,VWS V13.01,2013-10-09 20:09:00,
2013-10-09 13:10:00,57.0,47.3,29.53,WSW,246,2.7,2.7,70,0.00,,---,0.00,VWS V13.01,2013-10-09 20:10:00,
2013-10-09 13:11:00,56.8,46.8,29.53,West,269,4.0,4.9,69,0.00,,---,0.00,VWS V13.01,2013-10-09 20:11:00,
2013-10-09 13:12:00,56.8,46.8,29.53,WSW,248,2.2,3.6,69,0.00,,---,0.00,VWS V13.01,2013-10-09 20:12:00,
2013-10-09 13:13:00,56.7,46.6,29.53,SW,217,4.0,4.0,69,0.00,,---,0.00,VWS V13.01,2013-10-09 20:13:00,
2013-10-09 13:14:00,56.7,46.6,29.53,SW,236,4.0,4.0,69,0.00,,---,0.00,VWS V13.01,2013-10-09 20:14:00,
2013-10-09 13:16:00,56.7,46.6,29.53,SSW,209,0.0,3.1,69,0.00,,---,0.00,VWS V13.01,2013-10-09 20:16:00,
2013-10-09 13:17:00,56.7,46.6,29.53,SSW,209,0.0,0.0,69,0.00,,---,0.00,VWS V13.01,2013-10-09 20:17:00,
2013-10-09 13:18:00,56.8,46.8,29.53,SSW,209,0.0,0.0,69,0.00,,---,0.00,VWS V13.01,2013-10-09 20:18:00,
2013-10-09 13:19:00,56.8,47.2,29.53,WSW,245,2.2,3.1,70,0.00,,---,0.00,VWS V13.01,2013-10-09 20:19:00,
2013-10-09 13:21:00,56.8,46.8,29.53,WSW,238,2.7,2.7,69,0.00,,---,0.00,VWS V13.01,2013-10-09 20:21:00,
2013-10-09 13:22:00,57.0,47.3,29.53,WSW,238,0.0,0.0,70,0.00,,---,0.00,VWS V13.01,2013-10-09 20:22:00,
2013-10-09 13:23:00,57.2,47.1,29.53,SSW,195,0.0,0.0,69,0.00,,---,0.00,VWS V13.01,2013-10-09 20:23:00,
2013-10-09 13:24:00,57.2,47.1,29.53,West,274,0.0,0.0,69,0.00,,---,0.00,VWS V13.01,2013-10-09 20:24:00,
2013-10-09 13:26:00,57.6,47.9,29.53,SSW,199,0.0,0.0,70,0.00,,---,0.00,VWS V13.01,2013-10-09 20:26:00,
2013-10-09 13:27:00,57.6,47.5,29.53,West,275,2.2,3.1,69,0.00,,---,0.00,VWS V13.01,2013-10-09 20:27:00,
2013-10-09 13:28:00,57.6,47.5,29.53,South,179,3.6,3.6,69,0.00,,---,0.00,VWS V13.01,2013-10-09 20:28:00,
2013-10-09 13:29:00,57.6,47.5,29.53,WSW,244,4.5,4.5,69,0.00,,---,0.00,VWS V13.01,2013-10-09 20:29:00,
2013-10-09 13:31:00,57.4,46.9,29.53,SW,235,2.2,2.2,68,0.00,,---,0.00,VWS V13.01,2013-10-09 20:31:00,
2013-10-09 13:32:00,57.6,47.1,29.53,SW,235,0.0,0.0,68,0.00,,---,0.00,VWS V13.01,2013-10-09 20:32:00,
2013-10-09 13:33:00,57.6,47.1,29.53,SW,235,0.0,0.0,68,0.00,,---,0.00,VWS V13.01,2013-10-09 20:33:00,
2013-10-09 13:34:00,57.6,47.1,29.53,SW,235,0.0,0.0,68,0.00,,---,0.00,VWS V13.01,2013-10-09 20:34:00,
2013-10-09 13:36:00,57.9,47.4,29.53,SW,214,0.0,0.0,68,0.00,,---,0.00,VWS V13.01,2013-10-09 20:36:00,
2013-10-09 13:37:00,58.1,47.6,29.53,SSW,213,0.0,2.7,68,0.00,,---,0.00,VWS V13.01,2013-10-09 20:37:00,
2013-10-09 13:38:00,58.1,47.6,29.53,South,178,3.6,3.6,68,0.00,,---,0.00,VWS V13.01,2013-10-09 20:38:00,
2013-10-09 13:40:00,58.1,47.6,29.53,WNW,284,4.0,4.0,68,0.00,,---,0.00,VWS V13.01,2013-10-09 20:40:00,
2013-10-09 13:41:00,58.1,47.6,29.53,West,265,4.5,4.5,68,0.00,,---,0.00,VWS V13.01,2013-10-09 20:41:00,
2013-10-09 13:42:00,58.1,47.6,29.53,West,276,3.6,3.6,68,0.00,,---,0.00,VWS V13.01,2013-10-09 20:42:00,
2013-10-09 13:43:00,57.9,47.0,29.53,West,271,2.7,3.6,67,0.00,,---,0.00,VWS V13.01,2013-10-09 20:43:00,
2013-10-09 13:45:00,57.9,47.0,29.53,South,190,0.0,0.0,67,0.00,,---,0.00,VWS V13.01,2013-10-09 20:45:00,
2013-10-09 13:46:00,57.9,47.0,29.53,South,184,0.0,0.0,67,0.00,,---,0.00,VWS V13.01,2013-10-09 20:46:00,
2013-10-09 13:47:00,58.1,47.6,29.53,WSW,244,0.0,2.7,68,0.00,,---,0.00,VWS V13.01,2013-10-09 20:47:00,
2013-10-09 13:48:00,58.1,47.6,29.53,South,173,0.0,0.0,68,0.00,,---,0.00,VWS V13.01,2013-10-09 20:48:00,
2013-10-09 13:50:00,58.3,47.8,29.53,SSW,208,6.3,6.3,68,0.00,,---,0.00,VWS V13.01,2013-10-09 20:50:00,
2013-10-09 13:51:00,58.5,48.0,29.53,SSW,212,4.0,4.0,68,0.00,,---,0.00,VWS V13.01,2013-10-09 20:51:00,
2013-10-09 13:52:00,58.5,48.0,29.53,SSW,196,4.5,4.5,68,0.00,,---,0.00,VWS V13.01,2013-10-09 20:52:00,
2013-10-09 13:53:00,58.5,48.0,29.53,West,273,2.7,4.9,68,0.00,,---,0.00,VWS V13.01,2013-10-09 20:53:00,
2013-10-09 13:55:00,58.5,47.6,29.53,WNW,286,5.4,5.4,67,0.00,,---,0.00,VWS V13.01,2013-10-09 20:55:00,
2013-10-09 13:56:00,58.1,46.8,29.53,SW,221,3.6,6.3,66,0.00,,---,0.00,VWS V13.01,2013-10-09 20:56:00,
2013-10-09 13:58:00,57.9,46.6,29.53,SSE,168,2.2,3.6,66,0.00,,---,0.00,VWS V13.01,2013-10-09 20:58:00,
2013-10-09 13:59:00,57.9,46.6,29.53,SSE,163,2.7,4.0,66,0.00,,---,0.00,VWS V13.01,2013-10-09 20:59:00,
2013-10-09 14:00:00,58.1,46.8,29.53,SSE,162,0.0,3.6,66,0.00,,---,0.00,VWS V13.01,2013-10-09 21:00:00,
2013-10-09 14:01:00,58.1,46.8,29.53,SSE,167,3.6,3.6,66,0.00,,---,0.00,VWS V13.01,2013-10-09 21:01:00,
2013-10-09 14:03:00,58.3,47.4,29.53,SE,140,3.6,3.6,67,0.00,,---,0.00,VWS V13.01,2013-10-09 21:03:00,
2013-10-09 14:04:00,58.3,47.0,29.53,SE,144,0.0,3.6,66,0.00,,---,0.00,VWS V13.01,2013-10-09 21:04:00,
2013-10-09 14:05:00,58.3,47.4,29.53,South,191,2.2,3.6,67,0.00,,---,0.00,VWS V13.01,2013-10-09 21:05:00,
2013-10-09 14:06:00,58.5,47.6,29.53,South,191,0.0,0.0,67,0.00,,---,0.00,VWS V13.01,2013-10-09 21:06:00,
2013-10-09 14:08:00,58.5,47.2,29.53,SSW,209,2.7,2.7,66,0.00,,---,0.00,VWS V13.01,2013-10-09 21:08:00,
2013-10-09 14:09:00,58.6,47.3,29.53,South,176,3.1,3.1,66,0.00,,---,0.00,VWS V13.01,2013-10-09 21:09:00,
2013-10-09 14:10:00,58.6,47.3,29.53,South,176,0.0,0.0,66,0.00,,---,0.00,VWS V13.01,2013-10-09 21:10:00,
2013-10-09 14:11:00,58.8,47.9,29.53,South,185,0.0,0.0,67,0.00,,---,0.00,VWS V13.01,2013-10-09 21:11:00,
2013-10-09 14:14:00,58.8,47.9,29.53,SSW,197,0.0,0.0,67,0.00,,---,0.00,VWS V13.01,2013-10-09 21:14:00,
2013-10-09 14:15:00,58.8,47.5,29.53,SSW,211,2.2,5.4,66,0.00,,---,0.00,VWS V13.01,2013-10-09 21:15:00,
2013-10-09 14:16:00,58.8,47.5,29.53,SSW,211,0.0,5.4,66,0.00,,---,0.00,VWS V13.01,2013-10-09 21:16:00,
2013-10-09 14:19:00,58.5,47.2,29.53,South,181,2.2,2.2,66,0.00,,---,0.00,VWS V13.01,2013-10-09 21:19:00,
2013-10-09 14:20:00,58.1,46.4,29.53,SW,233,2.7,3.6,65,0.00,,---,0.00,VWS V13.01,2013-10-09 21:20:00,
2013-10-09 14:21:00,58.1,46.4,29.53,SW,233,2.7,3.6,65,0.00,,---,0.00,VWS V13.01,2013-10-09 21:21:00,
2013-10-09 14:24:00,58.3,47.0,29.53,WSW,253,3.1,3.6,66,0.00,,---,0.00,VWS V13.01,2013-10-09 21:24:00,
2013-10-09 14:25:00,58.3,47.0,29.53,South,182,2.7,3.1,66,0.00,,---,0.00,VWS V13.01,2013-10-09 21:25:00,
2013-10-09 14:26:00,58.3,47.0,29.53,South,190,2.2,2.2,66,0.00,,---,0.00,VWS V13.01,2013-10-09 21:26:00,
2013-10-09 14:29:00,58.3,47.0,29.53,SW,236,0.0,0.0,66,0.00,,---,0.00,VWS V13.01,2013-10-09 21:29:00,
2013-10-09 14:30:00,58.3,47.0,29.53,NW,315,3.1,3.1,66,0.00,,---,0.00,VWS V13.01,2013-10-09 21:30:00,
2013-10-09 14:31:00,58.3,47.0,29.53,SW,230,3.6,3.6,66,0.00,,---,0.00,VWS V13.01,2013-10-09 21:31:00,
2013-10-09 14:33:00,58.3,47.0,29.53,West,269,3.6,4.0,66,0.00,,---,0.00,VWS V13.01,2013-10-09 21:33:00,
2013-10-09 14:34:00,58.3,46.6,29.53,ESE,118,2.2,2.2,65,0.00,,---,0.00,VWS V13.01,2013-10-09 21:34:00,
2013-10-09 14:35:00,58.1,46.4,29.53,NNW,334,0.0,2.2,65,0.00,,---,0.00,VWS V13.01,2013-10-09 21:35:00,
2013-10-09 14:36:00,58.1,46.4,29.53,NNW,334,0.0,0.0,65,0.00,,---,0.00,VWS V13.01,2013-10-09 21:36:00,
2013-10-09 14:37:00,58.1,46.4,29.53,NNW,339,0.0,0.0,65,0.00,,---,0.00,VWS V13.01,2013-10-09 21:37:00,
2013-10-09 14:38:00,58.1,46.0,29.53,NNW,339,0.0,0.0,64,0.00,,---,0.00,VWS V13.01,2013-10-09 21:38:00,
2013-10-09 14:39:00,58.1,46.4,29.53,West,278,2.7,3.1,65,0.00,,---,0.00,VWS V13.01,2013-10-09 21:39:00,
2013-10-09 14:41:00,58.1,46.0,29.53,WNW,292,5.8,5.8,64,0.00,,---,0.00,VWS V13.01,2013-10-09 21:41:00,
2013-10-09 14:43:00,58.1,46.0,29.53,SW,222,4.0,4.9,64,0.00,,---,0.00,VWS V13.01,2013-10-09 21:43:00,
2013-10-09 14:44:00,58.1,46.0,29.53,SSW,211,2.7,2.7,64,0.00,,---,0.00,VWS V13.01,2013-10-09 21:44:00,
2013-10-09 14:46:00,58.3,46.2,29.53,SSW,211,0.0,2.2,64,0.00,,---,0.00,VWS V13.01,2013-10-09 21:46:00,
2013-10-09 14:48:00,58.5,46.8,29.53,SE,139,0.0,0.0,65,0.00,,---,0.00,VWS V13.01,2013-10-09 21:48:00,
2013-10-09 14:49:00,58.6,46.9,29.53,WSW,248,3.6,4.9,65,0.00,,---,0.00,VWS V13.01,2013-10-09 21:49:00,
2013-10-09 14:51:00,58.6,46.9,29.53,WSW,250,0.0,0.0,65,0.00,,---,0.00,VWS V13.01,2013-10-09 21:51:00,
2013-10-09 14:53:00,58.5,46.3,29.53,West,261,3.1,3.6,64,0.00,,---,0.00,VWS V13.01,2013-10-09 21:53:00,
2013-10-09 14:55:00,58.3,46.2,29.53,SW,224,2.7,2.7,64,0.00,,---,0.00,VWS V13.01,2013-10-09 21:55:00,
2013-10-09 14:56:00,58.3,45.8,29.53,WSW,257,3.6,3.6,63,0.00,,---,0.00,VWS V13.01,2013-10-09 21:56:00,
2013-10-09 14:58:00,58.3,46.2,29.53,NE,38,0.0,2.7,64,0.00,,---,0.00,VWS V13.01,2013-10-09 21:58:00,
2013-10-09 15:00:00,58.3,46.2,29.53,NE,38,0.0,0.0,64,0.00,,---,0.00,VWS V13.01,2013-10-09 22:00:00,
2013-10-09 15:01:00,58.5,46.3,29.50,NE,38,0.0,0.0,64,0.00,,---,0.00,VWS V13.01,2013-10-09 22:01:00,
2013-10-09 15:02:00,58.5,46.3,29.50,NE,38,0.0,0.0,64,0.00,,---,0.00,VWS V13.01,2013-10-09 22:02:00,
2013-10-09 15:03:00,58.6,46.9,29.50,North,357,0.0,0.0,65,0.00,,---,0.00,VWS V13.01,2013-10-09 22:03:00,
2013-10-09 15:04:00,58.6,46.9,29.50,North,353,0.0,0.0,65,0.00,,---,0.00,VWS V13.01,2013-10-09 22:04:00,
2013-10-09 15:05:00,58.5,46.8,29.50,WNW,289,0.0,0.0,65,0.00,,---,0.00,VWS V13.01,2013-10-09 22:05:00,
2013-10-09 15:06:00,58.5,46.8,29.50,WNW,289,0.0,0.0,65,0.00,,---,0.00,VWS V13.01,2013-10-09 22:06:00,
2013-10-09 15:07:00,58.5,46.8,29.50,WNW,289,0.0,0.0,65,0.00,,---,0.00,VWS V13.01,2013-10-09 22:07:00,
2013-10-09 15:09:00,58.5,46.8,29.50,West,278,3.1,3.6,65,0.00,,---,0.00,VWS V13.01,2013-10-09 22:09:00,
2013-10-09 15:10:00,58.5,46.8,29.50,West,265,0.0,3.1,65,0.00,,---,0.00,VWS V13.01,2013-10-09 22:10:00,
2013-10-09 15:12:00,58.5,46.8,29.50,West,265,0.0,0.0,65,0.00,,---,0.00,VWS V13.01,2013-10-09 22:12:00,
2013-10-09 15:14:00,58.5,46.3,29.50,WSW,249,3.1,3.1,64,0.00,,---,0.00,VWS V13.01,2013-10-09 22:14:00,
2013-10-09 15:15:00,58.5,46.3,29.50,WSW,250,0.0,2.2,64,0.00,,---,0.00,VWS V13.01,2013-10-09 22:15:00,
2013-10-09 15:17:00,58.3,46.2,29.53,West,264,3.1,3.6,64,0.00,,---,0.00,VWS V13.01,2013-10-09 22:17:00,
2013-10-09 15:19:00,58.1,46.0,29.53,WSW,251,0.0,0.0,64,0.00,,---,0.00,VWS V13.01,2013-10-09 22:19:00,
2013-10-09 15:20:00,58.3,46.2,29.53,WSW,244,0.0,0.0,64,0.00,,---,0.00,VWS V13.01,2013-10-09 22:20:00,
2013-10-09 15:21:00,58.3,46.2,29.53,SSW,200,0.0,3.6,64,0.00,,---,0.00,VWS V13.01,2013-10-09 22:21:00,
2013-10-09 15:22:00,58.3,46.2,29.53,SSW,200,0.0,3.6,64,0.00,,---,0.00,VWS V13.01,2013-10-09 22:22:00,
2013-10-09 15:24:00,58.3,46.2,29.53,WSW,257,0.0,0.0,64,0.00,,---,0.00,VWS V13.01,2013-10-09 22:24:00,
2013-10-09 15:25:00,58.3,46.6,29.53,SSW,206,0.0,0.0,65,0.00,,---,0.00,VWS V13.01,2013-10-09 22:25:00,
2013-10-09 15:26:00,58.1,46.0,29.53,SSW,206,0.0,0.0,64,0.00,,---,0.00,VWS V13.01,2013-10-09 22:26:00,
2013-10-09 15:27:00,58.1,46.0,29.53,SSW,206,0.0,0.0,64,0.00,,---,0.00,VWS V13.01,2013-10-09 22:27:00,
2013-10-09 15:28:00,58.1,46.4,29.53,West,279,2.7,2.7,65,0.00,,---,0.00,VWS V13.01,2013-10-09 22:28:00,
2013-10-09 15:29:00,58.3,46.6,29.53,WSW,248,0.0,2.7,65,0.00,,---,0.00,VWS V13.01,2013-10-09 22:29:00,
2013-10-09 15:30:00,58.5,46.8,29.53,WNW,284,2.7,2.7,65,0.00,,---,0.00,VWS V13.01,2013-10-09 22:30:00,
2013-10-09 15:31:00,58.3,46.6,29.50,North,357,2.2,2.2,65,0.00,,---,0.00,VWS V13.01,2013-10-09 22:31:00,
2013-10-09 15:32:00,58.1,46.0,29.50,North,357,2.2,2.2,64,0.00,,---,0.00,VWS V13.01,2013-10-09 22:32:00,
2013-10-09 15:33:00,58.1,46.4,29.50,ESE,103,2.2,2.7,65,0.00,,---,0.00,VWS V13.01,2013-10-09 22:33:00,
2013-10-09 15:34:00,58.3,46.6,29.50,ESE,103,2.7,2.7,65,0.00,,---,0.00,VWS V13.01,2013-10-09 22:34:00,
2013-10-09 15:35:00,58.6,46.9,29.50,ESE,120,3.1,3.6,65,0.00,,---,0.00,VWS V13.01,2013-10-09 22:35:00,
2013-10-09 15:36:00,58.8,47.5,29.50,East,90,2.7,3.6,66,0.00,,---,0.00,VWS V13.01,2013-10-09 22:36:00,
2013-10-09 15:37:00,58.8,47.5,29.50,East,90,2.2,2.7,66,0.00,,---,0.00,VWS V13.01,2013-10-09 22:37:00,
2013-10-09 15:38:00,59.2,47.4,29.50,South,170,2.7,3.6,65,0.00,,---,0.00,VWS V13.01,2013-10-09 22:38:00,
2013-10-09 15:39:00,59.2,47.4,29.50,SE,133,3.6,3.6,65,0.00,,---,0.00,VWS V13.01,2013-10-09 22:39:00,
2013-10-09 15:40:00,59.2,47.4,29.50,SE,133,0.0,0.0,65,0.00,,---,0.00,VWS V13.01,2013-10-09 22:40:00,
2013-10-09 15:41:00,59.2,47.0,29.50,West,277,2.7,2.7,64,0.00,,---,0.00,VWS V13.01,2013-10-09 22:41:00,
2013-10-09 15:42:00,59.2,47.0,29.50,WSW,248,3.1,3.1,64,0.00,,---,0.00,VWS V13.01,2013-10-09 22:42:00,
2013-10-09 15:44:00,59.2,47.0,29.50,WSW,254,4.0,4.5,64,0.00,,---,0.00,VWS V13.01,2013-10-09 22:44:00,
2013-10-09 15:45:00,59.2,47.0,29.50,WSW,255,3.6,3.6,64,0.00,,---,0.00,VWS V13.01,2013-10-09 22:45:00,
2013-10-09 15:47:00,59.2,47.0,29.50,SW,233,3.1,3.1,64,0.00,,---,0.00,VWS V13.01,2013-10-09 22:47:00,
2013-10-09 15:48:00,59.2,47.0,29.50,WSW,246,3.1,3.1,64,0.00,,---,0.00,VWS V13.01,2013-10-09 22:48:00,
2013-10-09 15:49:00,59.2,47.0,29.50,SW,223,3.1,3.1,64,0.00,,---,0.00,VWS V13.01,2013-10-09 22:49:00,
2013-10-09 15:50:00,59.2,47.0,29.50,SW,226,2.7,2.7,64,0.00,,---,0.00,VWS V13.01,2013-10-09 22:50:00,
2013-10-09 15:52:00,59.2,47.0,29.50,SSE,167,0.0,2.2,64,0.00,,---,0.00,VWS V13.01,2013-10-09 22:52:00,
2013-10-09 15:53:00,59.2,47.0,29.50,SSE,167,0.0,0.0,64,0.00,,---,0.00,VWS V13.01,2013-10-09 22:53:00,
2013-10-09 15:54:00,59.0,46.8,29.50,SSE,167,0.0,0.0,64,0.00,,---,0.00,VWS V13.01,2013-10-09 22:54:00,
2013-10-09 15:55:00,59.2,47.0,29.50,SSE,167,0.0,0.0,64,0.00,,---,0.00,VWS V13.01,2013-10-09 22:55:00,
2013-10-09 15:57:00,59.2,47.0,29.50,SSE,167,0.0,0.0,64,0.00,,---,0.00,VWS V13.01,2013-10-09 22:57:00,
2013-10-09 15:58:00,59.2,47.4,29.50,SSE,167,0.0,0.0,65,0.00,,---,0.00,VWS V13.01,2013-10-09 22:58:00,
2013-10-09 15:59:00,59.2,47.0,29.50,SSE,167,0.0,0.0,64,0.00,,---,0.00,VWS V13.01,2013-10-09 22:59:00,
2013-10-09 16:01:00,59.0,46.8,29.50,SSE,167,0.0,0.0,64,0.00,,---,0.00,VWS V13.01,2013-10-09 23:01:00,
2013-10-09 16:02:00,58.6,46.5,29.50,SSE,167,0.0,0.0,64,0.00,,---,0.00,VWS V13.01,2013-10-09 23:02:00,
2013-10-09 16:03:00,58.5,46.3,29.50,SSE,167,0.0,0.0,64,0.00,,---,0.00,VWS V13.01,2013-10-09 23:03:00,
2013-10-09 16:04:00,58.5,46.3,29.50,NE,46,2.7,2.7,64,0.00,,---,0.00,VWS V13.01,2013-10-09 23:04:00,
2013-10-09 16:05:00,58.5,46.3,29.50,WSW,243,3.1,3.1,64,0.00,,---,0.00,VWS V13.01,2013-10-09 23:05:00,
2013-10-09 16:06:00,58.5,46.3,29.50,WSW,243,0.0,0.0,64,0.00,,---,0.00,VWS V13.01,2013-10-09 23:06:00,
2013-10-09 16:07:00,58.3,46.2,29.50,WSW,243,0.0,0.0,64,0.00,,---,0.00,VWS V13.01,2013-10-09 23:07:00,
2013-10-09 16:08:00,58.3,46.2,29.50,WSW,243,0.0,0.0,64,0.00,,---,0.00,VWS V13.01,2013-10-09 23:08:00,
2013-10-09 16:09:00,58.3,46.2,29.50,WSW,243,0.0,0.0,64,0.00,,---,0.00,VWS V13.01,2013-10-09 23:09:00,
2013-10-09 16:10:00,58.1,46.0,29.50,WNW,294,2.7,2.7,64,0.00,,---,0.00,VWS V13.01,2013-10-09 23:10:00,
2013-10-09 16:12:00,58.1,46.0,29.50,East,88,0.0,0.0,64,0.00,,---,0.00,VWS V13.01,2013-10-09 23:12:00,
2013-10-09 16:14:00,58.3,46.2,29.50,East,97,0.0,0.0,64,0.00,,---,0.00,VWS V13.01,2013-10-09 23:14:00,
2013-10-09 16:15:00,58.3,46.2,29.50,SSE,151,0.0,0.0,64,0.00,,---,0.00,VWS V13.01,2013-10-09 23:15:00,
2013-10-09 16:17:00,58.5,46.8,29.50,WSW,240,2.7,2.7,65,0.00,,---,0.00,VWS V13.01,2013-10-09 23:17:00,
2013-10-09 16:19:00,58.8,47.1,29.50,SW,218,2.7,2.7,65,0.00,,---,0.00,VWS V13.01,2013-10-09 23:19:00,
2013-10-09 16:20:00,59.0,47.3,29.50,SSW,198,2.2,2.7,65,0.00,,---,0.00,VWS V13.01,2013-10-09 23:20:00,
2013-10-09 16:21:00,59.0,47.3,29.50,SSW,198,0.0,0.0,65,0.00,,---,0.00,VWS V13.01,2013-10-09 23:21:00,
2013-10-09 16:22:00,59.2,47.4,29.50,South,190,0.0,0.0,65,0.00,,---,0.00,VWS V13.01,2013-10-09 23:22:00,
2013-10-09 16:23:00,59.2,47.4,29.50,South,190,0.0,0.0,65,0.00,,---,0.00,VWS V13.01,2013-10-09 23:23:00,
2013-10-09 16:24:00,59.4,47.6,29.50,WSW,237,0.0,0.0,65,0.00,,---,0.00,VWS V13.01,2013-10-09 23:24:00,
2013-10-09 16:25:00,59.4,47.6,29.50,WNW,282,0.0,3.1,65,0.00,,---,0.00,VWS V13.01,2013-10-09 23:25:00,
2013-10-09 16:26:00,59.4,47.6,29.50,WNW,282,0.0,3.1,65,0.00,,---,0.00,VWS V13.01,2013-10-09 23:26:00,
2013-10-09 16:27:00,59.4,47.6,29.50,WNW,282,4.0,4.0,65,0.00,,---,0.00,VWS V13.01,2013-10-09 23:27:00,
2013-10-09 16:28:00,59.4,47.6,29.50,WNW,282,4.0,4.0,65,0.00,,---,0.00,VWS V13.01,2013-10-09 23:28:00,
2013-10-09 16:29:00,59.2,46.6,29.50,West,271,2.2,3.1,63,0.00,,---,0.00,VWS V13.01,2013-10-09 23:29:00,
2013-10-09 16:30:00,59.2,47.0,29.50,South,188,3.1,3.1,64,0.00,,---,0.00,VWS V13.01,2013-10-09 23:30:00,
2013-10-09 16:31:00,59.2,47.0,29.50,South,188,2.2,2.7,64,0.00,,---,0.00,VWS V13.01,2013-10-09 23:31:00,
2013-10-09 16:32:00,59.2,46.6,29.50,South,188,0.0,2.2,63,0.00,,---,0.00,VWS V13.01,2013-10-09 23:32:00,
2013-10-09 16:33:00,59.2,46.6,29.50,South,188,0.0,2.2,63,0.00,,---,0.00,VWS V13.01,2013-10-09 23:33:00,
2013-10-09 16:35:00,59.2,46.6,29.50,SSE,163,0.0,0.0,63,0.00,,---,0.00,VWS V13.01,2013-10-09 23:35:00,
2013-10-09 16:36:00,59.2,47.0,29.50,ESE,119,0.0,0.0,64,0.00,,---,0.00,VWS V13.01,2013-10-09 23:36:00,
2013-10-09 16:37:00,59.0,46.4,29.50,SW,231,0.0,0.0,63,0.00,,---,0.00,VWS V13.01,2013-10-09 23:37:00,
2013-10-09 16:38:00,59.0,46.4,29.50,West,280,3.6,3.6,63,0.00,,---,0.00,VWS V13.01,2013-10-09 23:38:00,
2013-10-09 16:40:00,58.8,45.8,29.50,WNW,282,3.1,4.9,62,0.00,,---,0.00,VWS V13.01,2013-10-09 23:40:00,
2013-10-09 16:41:00,58.6,45.7,29.50,WSW,245,3.1,3.1,62,0.00,,---,0.00,VWS V13.01,2013-10-09 23:41:00,
2013-10-09 16:42:00,58.6,45.7,29.50,West,281,2.7,4.9,62,0.00,,---,0.00,VWS V13.01,2013-10-09 23:42:00,
2013-10-09 16:43:00,58.6,45.7,29.50,West,273,2.7,2.7,62,0.00,,---,0.00,VWS V13.01,2013-10-09 23:43:00,
2013-10-09 16:45:00,58.5,45.1,29.50,West,280,3.6,3.6,61,0.00,,---,0.00,VWS V13.01,2013-10-09 23:45:00,
2013-10-09 16:46:00,58.5,45.1,29.50,West,274,3.6,3.6,61,0.00,,---,0.00,VWS V13.01,2013-10-09 23:46:00,
2013-10-09 16:48:00,58.5,45.1,29.50,West,266,0.0,3.1,61,0.00,,---,0.00,VWS V13.01,2013-10-09 23:48:00,
2013-10-09 16:50:00,58.5,45.5,29.50,West,265,0.0,0.0,62,0.00,,---,0.00,VWS V13.01,2013-10-09 23:50:00,
2013-10-09 16:51:00,58.6,45.7,29.50,WSW,238,3.1,3.1,62,0.00,,---,0.00,VWS V13.01,2013-10-09 23:51:00,
2013-10-09 16:52:00,58.6,45.7,29.50,WSW,238,0.0,3.1,62,0.00,,---,0.00,VWS V13.01,2013-10-09 23:52:00,
2013-10-09 16:53:00,58.5,45.5,29.50,WSW,238,0.0,0.0,62,0.00,,---,0.00,VWS V13.01,2013-10-09 23:53:00,
2013-10-09 16:54:00,58.5,45.5,29.50,WSW,238,0.0,0.0,62,0.00,,---,0.00,VWS V13.01,2013-10-09 23:54:00,
2013-10-09 16:55:00,58.5,45.5,29.50,WSW,238,2.2,2.2,62,0.00,,---,0.00,VWS V13.01,2013-10-09 23:55:00,
2013-10-09 16:56:00,58.5,45.5,29.50,WSW,238,0.0,2.2,62,0.00,,---,0.00,VWS V13.01,2013-10-09 23:56:00,
2013-10-09 16:57:00,58.3,45.8,29.50,WSW,238,0.0,0.0,63,0.00,,---,0.00,VWS V13.01,2013-10-09 23:57:00,
2013-10-09 16:58:00,58.3,45.8,29.50,WSW,238,0.0,0.0,63,0.00,,---,0.00,VWS V13.01,2013-10-09 23:58:00,
2013-10-09 16:59:00,58.1,46.0,29.50,WSW,238,0.0,0.0,64,0.00,,---,0.00,VWS V13.01,2013-10-09 23:59:00,
2013-10-09 17:01:00,58.3,46.2,29.50,WSW,238,0.0,0.0,64,0.00,,---,0.00,VWS V13.01,2013-10-10 00:01:00,
2013-10-09 17:02:00,58.3,46.2,29.50,WSW,238,0.0,0.0,64,0.00,,---,0.00,VWS V13.01,2013-10-10 00:02:00,
2013-10-09 17:03:00,58.1,46.0,29.50,WSW,238,0.0,0.0,64,0.00,,---,0.00,VWS V13.01,2013-10-10 00:03:00,
2013-10-09 17:05:00,58.1,46.0,29.50,WSW,238,0.0,0.0,64,0.00,,---,0.00,VWS V13.01,2013-10-10 00:05:00,
2013-10-09 17:06:00,58.1,46.4,29.50,WSW,238,0.0,0.0,65,0.00,,---,0.00,VWS V13.01,2013-10-10 00:06:00,
2013-10-09 17:07:00,58.1,46.0,29.50,WSW,238,0.0,0.0,64,0.00,,---,0.00,VWS V13.01,2013-10-10 00:07:00,
2013-10-09 17:08:00,57.7,45.7,29.50,WSW,238,0.0,0.0,64,0.00,,---,0.00,VWS V13.01,2013-10-10 00:08:00,
2013-10-09 17:10:00,57.7,46.1,29.50,WSW,238,0.0,0.0,65,0.00,,---,0.00,VWS V13.01,2013-10-10 00:10:00,
2013-10-09 17:11:00,57.7,46.1,29.50,WSW,238,0.0,0.0,65,0.00,,---,0.00,VWS V13.01,2013-10-10 00:11:00,
2013-10-09 17:12:00,57.7,46.1,29.50,WSW,238,0.0,0.0,65,0.00,,---,0.00,VWS V13.01,2013-10-10 00:12:00,
2013-10-09 17:13:00,57.7,46.5,29.50,WSW,238,0.0,0.0,66,0.00,,---,0.00,VWS V13.01,2013-10-10 00:13:00,
2013-10-09 17:15:00,57.7,46.5,29.50,WSW,238,0.0,0.0,66,0.00,,---,0.00,VWS V13.01,2013-10-10 00:15:00,
2013-10-09 17:16:00,57.6,46.3,29.50,WSW,238,0.0,0.0,66,0.00,,---,0.00,VWS V13.01,2013-10-10 00:16:00,
2013-10-09 17:17:00,57.6,46.3,29.50,WSW,238,0.0,0.0,66,0.00,,---,0.00,VWS V13.01,2013-10-10 00:17:00,
2013-10-09 17:18:00,57.2,45.6,29.50,WSW,238,0.0,0.0,65,0.00,,---,0.00,VWS V13.01,2013-10-10 00:18:00,
2013-10-09 17:20:00,57.0,45.8,29.50,WSW,238,0.0,0.0,66,0.00,,---,0.00,VWS V13.01,2013-10-10 00:20:00,
2013-10-09 17:21:00,57.0,46.2,29.50,WSW,238,0.0,0.0,67,0.00,,---,0.00,VWS V13.01,2013-10-10 00:21:00,
2013-10-09 17:22:00,56.7,45.8,29.50,WSW,238,0.0,0.0,67,0.00,,---,0.00,VWS V13.01,2013-10-10 00:22:00,
2013-10-09 17:23:00,56.7,45.4,29.50,WSW,238,0.0,0.0,66,0.00,,---,0.00,VWS V13.01,2013-10-10 00:23:00,
2013-10-09 17:24:00,56.5,45.7,29.50,WSW,238,0.0,0.0,67,0.00,,---,0.00,VWS V13.01,2013-10-10 00:24:00,
2013-10-09 17:25:00,56.5,45.7,29.50,WSW,238,0.0,0.0,67,0.00,,---,0.00,VWS V13.01,2013-10-10 00:25:00,
2013-10-09 17:26:00,56.5,45.7,29.50,WSW,238,0.0,0.0,67,0.00,,---,0.00,VWS V13.01,2013-10-10 00:26:00,
2013-10-09 17:27:00,56.5,45.7,29.50,WSW,238,0.0,0.0,67,0.00,,---,0.00,VWS V13.01,2013-10-10 00:27:00,
2013-10-09 17:28:00,56.3,45.5,29.50,WSW,238,0.0,0.0,67,0.00,,---,0.00,VWS V13.01,2013-10-10 00:28:00,
2013-10-09 17:29:00,56.1,45.3,29.50,WSW,238,0.0,0.0,67,0.00,,---,0.00,VWS V13.01,2013-10-10 00:29:00,
2013-10-09 17:30:00,56.1,45.3,29.50,WSW,238,0.0,0.0,67,0.00,,---,0.00,VWS V13.01,2013-10-10 00:30:00,
2013-10-09 17:31:00,55.8,45.4,29.50,WSW,238,0.0,0.0,68,0.00,,---,0.00,VWS V13.01,2013-10-10 00:31:00,
2013-10-09 17:32:00,55.8,45.4,29.50,WSW,238,0.0,0.0,68,0.00,,---,0.00,VWS V13.01,2013-10-10 00:32:00,
2013-10-09 17:33:00,55.8,45.4,29.50,WSW,238,0.0,0.0,68,0.00,,---,0.00,VWS V13.01,2013-10-10 00:33:00,
2013-10-09 17:34:00,55.9,45.9,29.50,WSW,238,0.0,0.0,69,0.00,,---,0.00,VWS V13.01,2013-10-10 00:34:00,
2013-10-09 17:35:00,55.9,45.9,29.50,WSW,238,0.0,0.0,69,0.00,,---,0.00,VWS V13.01,2013-10-10 00:35:00,
2013-10-09 17:37:00,55.9,45.9,29.50,WSW,238,0.0,0.0,69,0.00,,---,0.00,VWS V13.01,2013-10-10 00:37:00,
2013-10-09 17:38:00,55.6,45.6,29.50,WSW,238,0.0,0.0,69,0.00,,---,0.00,VWS V13.01,2013-10-10 00:38:00,
2013-10-09 17:39:00,55.6,45.6,29.50,WSW,238,0.0,0.0,69,0.00,,---,0.00,VWS V13.01,2013-10-10 00:39:00,
2013-10-09 17:41:00,55.2,45.6,29.50,WSW,238,0.0,0.0,70,0.00,,---,0.00,VWS V13.01,2013-10-10 00:41:00,
2013-10-09 17:42:00,55.2,45.6,29.50,WSW,238,0.0,0.0,70,0.00,,---,0.00,VWS V13.01,2013-10-10 00:42:00,
2013-10-09 17:43:00,55.0,45.5,29.50,WSW,238,0.0,0.0,70,0.00,,---,0.00,VWS V13.01,2013-10-10 00:43:00,
2013-10-09 17:44:00,55.0,45.8,29.50,WSW,238,0.0,0.0,71,0.00,,---,0.00,VWS V13.01,2013-10-10 00:44:00,
2013-10-09 17:46:00,55.0,45.8,29.50,WSW,238,0.0,0.0,71,0.00,,---,0.00,VWS V13.01,2013-10-10 00:46:00,
2013-10-09 17:47:00,55.2,46.0,29.50,WSW,238,0.0,0.0,71,0.00,,---,0.00,VWS V13.01,2013-10-10 00:47:00,
2013-10-09 17:48:00,54.9,45.7,29.50,WSW,238,0.0,0.0,71,0.00,,---,0.00,VWS V13.01,2013-10-10 00:48:00,
2013-10-09 17:49:00,54.7,45.5,29.50,WSW,238,0.0,0.0,71,0.00,,---,0.00,VWS V13.01,2013-10-10 00:49:00,
2013-10-09 17:51:00,54.5,45.3,29.50,WSW,238,0.0,0.0,71,0.00,,---,0.00,VWS V13.01,2013-10-10 00:51:00,
2013-10-09 17:52:00,54.5,45.7,29.50,WSW,238,0.0,0.0,72,0.00,,---,0.00,VWS V13.01,2013-10-10 00:52:00,
2013-10-09 17:54:00,54.3,45.5,29.50,WSW,238,0.0,0.0,72,0.00,,---,0.00,VWS V13.01,2013-10-10 00:54:00,
2013-10-09 17:56:00,54.1,45.3,29.50,WSW,238,0.0,0.0,72,0.00,,---,0.00,VWS V13.01,2013-10-10 00:56:00,
2013-10-09 17:57:00,54.0,45.2,29.50,WSW,238,0.0,0.0,72,0.00,,---,0.00,VWS V13.01,2013-10-10 00:57:00,
2013-10-09 17:58:00,54.0,45.2,29.50,WSW,238,0.0,0.0,72,0.00,,---,0.00,VWS V13.01,2013-10-10 00:58:00,
2013-10-09 17:59:00,54.0,45.5,29.50,WSW,238,0.0,0.0,73,0.00,,---,0.00,VWS V13.01,2013-10-10 00:59:00,
2013-10-09 18:00:00,54.0,45.5,29.50,WSW,238,0.0,0.0,73,0.00,,---,0.00,VWS V13.01,2013-10-10 01:00:00,
2013-10-09 18:01:00,54.0,45.5,29.50,WSW,238,0.0,0.0,73,0.00,,---,0.00,VWS V13.01,2013-10-10 01:01:00,
2013-10-09 18:02:00,54.0,45.5,29.50,WSW,238,0.0,0.0,73,0.00,,---,0.00,VWS V13.01,2013-10-10 01:02:00,
2013-10-09 18:03:00,54.0,45.5,29.50,WSW,238,0.0,0.0,73,0.00,,---,0.00,VWS V13.01,2013-10-10 01:03:00,
2013-10-09 18:04:00,54.0,45.5,29.50,WSW,238,0.0,0.0,73,0.00,,---,0.00,VWS V13.01,2013-10-10 01:04:00,
2013-10-09 18:05:00,54.0,45.5,29.50,WSW,238,0.0,0.0,73,0.00,,---,0.00,VWS V13.01,2013-10-10 01:05:00,
2013-10-09 18:06:00,53.8,45.3,29.50,WSW,238,0.0,0.0,73,0.00,,---,0.00,VWS V13.01,2013-10-10 01:06:00,
2013-10-09 18:08:00,53.6,45.2,29.50,WSW,238,0.0,0.0,73,0.00,,---,0.00,VWS V13.01,2013-10-10 01:08:00,
2013-10-09 18:10:00,53.1,45.0,29.50,WSW,238,0.0,0.0,74,0.00,,---,0.00,VWS V13.01,2013-10-10 01:10:00,
2013-10-09 18:11:00,53.1,45.0,29.50,WSW,238,0.0,0.0,74,0.00,,---,0.00,VWS V13.01,2013-10-10 01:11:00,
2013-10-09 18:13:00,53.1,45.4,29.50,WSW,238,0.0,0.0,75,0.00,,---,0.00,VWS V13.01,2013-10-10 01:13:00,
2013-10-09 18:15:00,53.1,45.4,29.50,WSW,238,0.0,0.0,75,0.00,,---,0.00,VWS V13.01,2013-10-10 01:15:00,
2013-10-09 18:16:00,53.1,45.4,29.50,WSW,238,0.0,0.0,75,0.00,,---,0.00,VWS V13.01,2013-10-10 01:16:00,
2013-10-09 18:17:00,52.9,45.2,29.50,WSW,238,0.0,0.0,75,0.00,,---,0.00,VWS V13.01,2013-10-10 01:17:00,
2013-10-09 18:19:00,52.9,45.2,29.50,WSW,238,0.0,0.0,75,0.00,,---,0.00,VWS V13.01,2013-10-10 01:19:00,
2013-10-09 18:20:00,52.9,45.2,29.50,WSW,238,0.0,0.0,75,0.00,,---,0.00,VWS V13.01,2013-10-10 01:20:00,
2013-10-09 18:21:00,52.7,45.0,29.50,WSW,238,0.0,0.0,75,0.00,,---,0.00,VWS V13.01,2013-10-10 01:21:00,
2013-10-09 18:22:00,52.7,45.0,29.50,WSW,238,0.0,0.0,75,0.00,,---,0.00,VWS V13.01,2013-10-10 01:22:00,
2013-10-09 18:24:00,52.7,45.4,29.50,WSW,238,0.0,0.0,76,0.00,,---,0.00,VWS V13.01,2013-10-10 01:24:00,
2013-10-09 18:25:00,52.7,45.4,29.50,WSW,238,0.0,0.0,76,0.00,,---,0.00,VWS V13.01,2013-10-10 01:25:00,
2013-10-09 18:26:00,52.7,45.4,29.50,WSW,238,0.0,0.0,76,0.00,,---,0.00,VWS V13.01,2013-10-10 01:26:00,
2013-10-09 18:27:00,52.9,45.5,29.50,WSW,238,0.0,0.0,76,0.00,,---,0.00,VWS V13.01,2013-10-10 01:27:00,
2013-10-09 18:29:00,52.9,45.5,29.50,WSW,238,0.0,0.0,76,0.00,,---,0.00,VWS V13.01,2013-10-10 01:29:00,
2013-10-09 18:30:00,52.7,45.4,29.50,WSW,238,0.0,0.0,76,0.00,,---,0.00,VWS V13.01,2013-10-10 01:30:00,
2013-10-09 18:31:00,52.7,45.4,29.47,WSW,238,0.0,0.0,76,0.00,,---,0.00,VWS V13.01,2013-10-10 01:31:00,
2013-10-09 18:32:00,52.7,45.4,29.47,WSW,238,0.0,0.0,76,0.00,,---,0.00,VWS V13.01,2013-10-10 01:32:00,
2013-10-09 18:34:00,52.5,45.2,29.47,WSW,238,0.0,0.0,76,0.00,,---,0.00,VWS V13.01,2013-10-10 01:34:00,
2013-10-09 18:35:00,52.3,45.3,29.47,WSW,238,0.0,0.0,77,0.00,,---,0.00,VWS V13.01,2013-10-10 01:35:00,
2013-10-09 18:36:00,52.3,45.3,29.47,WSW,238,0.0,0.0,77,0.00,,---,0.00,VWS V13.01,2013-10-10 01:36:00,
2013-10-09 18:37:00,52.3,45.3,29.47,WSW,238,0.0,0.0,77,0.00,,---,0.00,VWS V13.01,2013-10-10 01:37:00,
2013-10-09 18:39:00,52.3,45.3,29.47,WSW,238,0.0,0.0,77,0.00,,---,0.00,VWS V13.01,2013-10-10 01:39:00,
2013-10-09 18:40:00,52.3,45.3,29.47,WSW,238,0.0,0.0,77,0.00,,---,0.00,VWS V13.01,2013-10-10 01:40:00,
2013-10-09 18:41:00,52.3,45.3,29.47,WSW,238,0.0,0.0,77,0.00,,---,0.00,VWS V13.01,2013-10-10 01:41:00,
2013-10-09 18:42:00,52.2,45.2,29.47,WSW,238,0.0,0.0,77,0.00,,---,0.00,VWS V13.01,2013-10-10 01:42:00,
2013-10-09 18:44:00,52.0,45.0,29.47,WSW,238,0.0,0.0,77,0.00,,---,0.00,VWS V13.01,2013-10-10 01:44:00,
2013-10-09 18:45:00,52.0,45.0,29.47,WSW,238,0.0,0.0,77,0.00,,---,0.00,VWS V13.01,2013-10-10 01:45:00,
2013-10-09 18:46:00,52.0,45.0,29.47,WSW,238,0.0,0.0,77,0.00,,---,0.00,VWS V13.01,2013-10-10 01:46:00,
2013-10-09 18:47:00,52.0,45.0,29.47,WSW,238,0.0,0.0,77,0.00,,---,0.00,VWS V13.01,2013-10-10 01:47:00,
2013-10-09 18:48:00,51.8,44.8,29.47,WSW,238,0.0,0.0,77,0.00,,---,0.00,VWS V13.01,2013-10-10 01:48:00,
2013-10-09 18:49:00,51.8,45.2,29.47,WSW,238,0.0,0.0,78,0.00,,---,0.00,VWS V13.01,2013-10-10 01:49:00,
2013-10-09 18:50:00,51.8,45.2,29.47,WSW,238,0.0,0.0,78,0.00,,---,0.00,VWS V13.01,2013-10-10 01:50:00,
2013-10-09 18:51:00,51.6,45.0,29.47,WSW,238,0.0,0.0,78,0.00,,---,0.00,VWS V13.01,2013-10-10 01:51:00,
2013-10-09 18:52:00,51.6,45.0,29.47,WSW,238,0.0,0.0,78,0.00,,---,0.00,VWS V13.01,2013-10-10 01:52:00,
2013-10-09 18:53:00,51.6,45.0,29.47,WSW,238,0.0,0.0,78,0.00,,---,0.00,VWS V13.01,2013-10-10 01:53:00,
2013-10-09 18:54:00,51.4,44.8,29.47,WSW,238,0.0,0.0,78,0.00,,---,0.00,VWS V13.01,2013-10-10 01:54:00,
2013-10-09 18:55:00,51.4,44.8,29.47,WSW,238,0.0,0.0,78,0.00,,---,0.00,VWS V13.01,2013-10-10 01:55:00,
2013-10-09 18:56:00,51.4,45.2,29.47,WSW,238,0.0,0.0,79,0.00,,---,0.00,VWS V13.01,2013-10-10 01:56:00,
2013-10-09 18:57:00,51.4,45.2,29.47,WSW,238,0.0,0.0,79,0.00,,---,0.00,VWS V13.01,2013-10-10 01:57:00,
2013-10-09 18:58:00,51.3,45.0,29.47,WSW,238,0.0,0.0,79,0.00,,---,0.00,VWS V13.01,2013-10-10 01:58:00,
2013-10-09 18:59:00,51.3,45.0,29.47,WSW,238,0.0,0.0,79,0.00,,---,0.00,VWS V13.01,2013-10-10 01:59:00,
2013-10-09 19:00:00,51.3,45.0,29.47,WSW,238,0.0,0.0,79,0.00,,---,0.00,VWS V13.01,2013-10-10 02:00:00,
2013-10-09 19:02:00,51.3,45.0,29.47,WSW,238,0.0,0.0,79,0.00,,---,0.00,VWS V13.01,2013-10-10 02:02:00,
2013-10-09 19:03:00,51.1,44.8,29.47,WSW,238,0.0,0.0,79,0.00,,---,0.00,VWS V13.01,2013-10-10 02:03:00,
2013-10-09 19:05:00,50.9,44.6,29.47,WSW,238,0.0,0.0,79,0.00,,---,0.00,VWS V13.01,2013-10-10 02:05:00,
2013-10-09 19:07:00,50.7,44.5,29.47,WSW,238,0.0,0.0,79,0.00,,---,0.00,VWS V13.01,2013-10-10 02:07:00,
2013-10-09 19:08:00,50.7,44.5,29.47,WSW,238,0.0,0.0,79,0.00,,---,0.00,VWS V13.01,2013-10-10 02:08:00,
2013-10-09 19:09:00,50.7,44.5,29.47,WSW,238,0.0,0.0,79,0.00,,---,0.00,VWS V13.01,2013-10-10 02:09:00,
2013-10-09 19:10:00,50.5,44.3,29.47,WSW,238,0.0,0.0,79,0.00,,---,0.00,VWS V13.01,2013-10-10 02:10:00,
2013-10-09 19:12:00,50.4,44.4,29.47,WSW,238,0.0,0.0,80,0.00,,---,0.00,VWS V13.01,2013-10-10 02:12:00,
2013-10-09 19:13:00,50.4,44.4,29.47,WSW,238,0.0,0.0,80,0.00,,---,0.00,VWS V13.01,2013-10-10 02:13:00,
2013-10-09 19:14:00,50.4,44.4,29.47,WSW,238,0.0,0.0,80,0.00,,---,0.00,VWS V13.01,2013-10-10 02:14:00,
2013-10-09 19:15:00,50.2,44.3,29.47,WSW,238,0.0,0.0,80,0.00,,---,0.00,VWS V13.01,2013-10-10 02:15:00,
2013-10-09 19:16:00,50.2,44.3,29.47,WSW,238,0.0,0.0,80,0.00,,---,0.00,VWS V13.01,2013-10-10 02:16:00,
2013-10-09 19:17:00,50.0,44.1,29.47,WSW,238,0.0,0.0,80,0.00,,---,0.00,VWS V13.01,2013-10-10 02:17:00,
2013-10-09 19:18:00,50.0,44.1,29.47,WSW,238,0.0,0.0,80,0.00,,---,0.00,VWS V13.01,2013-10-10 02:18:00,
2013-10-09 19:19:00,50.2,44.3,29.47,WSW,238,0.0,0.0,80,0.00,,---,0.00,VWS V13.01,2013-10-10 02:19:00,
2013-10-09 19:20:00,50.2,44.3,29.47,WSW,238,0.0,0.0,80,0.00,,---,0.00,VWS V13.01,2013-10-10 02:20:00,
2013-10-09 19:21:00,50.2,44.6,29.47,WSW,238,0.0,0.0,81,0.00,,---,0.00,VWS V13.01,2013-10-10 02:21:00,
2013-10-09 19:23:00,50.2,44.6,29.47,WSW,238,0.0,0.0,81,0.00,,---,0.00,VWS V13.01,2013-10-10 02:23:00,
2013-10-09 19:24:00,50.2,44.6,29.47,WSW,238,0.0,0.0,81,0.00,,---,0.00,VWS V13.01,2013-10-10 02:24:00,
2013-10-09 19:25:00,50.2,44.6,29.47,WSW,238,0.0,0.0,81,0.00,,---,0.00,VWS V13.01,2013-10-10 02:25:00,
2013-10-09 19:26:00,50.2,44.6,29.47,WSW,238,0.0,0.0,81,0.00,,---,0.00,VWS V13.01,2013-10-10 02:26:00,
2013-10-09 19:28:00,50.0,44.4,29.47,WSW,238,0.0,0.0,81,0.00,,---,0.00,VWS V13.01,2013-10-10 02:28:00,
2013-10-09 19:29:00,50.0,44.4,29.47,WSW,238,0.0,0.0,81,0.00,,---,0.00,VWS V13.01,2013-10-10 02:29:00,
2013-10-09 19:30:00,50.0,44.4,29.47,WSW,238,0.0,0.0,81,0.00,,---,0.00,VWS V13.01,2013-10-10 02:30:00,
2013-10-09 19:31:00,50.0,44.4,29.47,WSW,238,0.0,0.0,81,0.00,,---,0.00,VWS V13.01,2013-10-10 02:31:00,
2013-10-09 19:33:00,50.0,44.4,29.47,WSW,238,0.0,0.0,81,0.00,,---,0.00,VWS V13.01,2013-10-10 02:33:00,
2013-10-09 19:34:00,50.0,44.4,29.47,WSW,238,0.0,0.0,81,0.00,,---,0.00,VWS V13.01,2013-10-10 02:34:00,
2013-10-09 19:35:00,50.0,44.4,29.47,WSW,238,0.0,0.0,81,0.00,,---,0.00,VWS V13.01,2013-10-10 02:35:00,
2013-10-09 19:36:00,50.0,44.4,29.47,WSW,238,0.0,0.0,81,0.00,,---,0.00,VWS V13.01,2013-10-10 02:36:00,
2013-10-09 19:38:00,49.8,44.5,29.47,WSW,238,0.0,0.0,82,0.00,,---,0.00,VWS V13.01,2013-10-10 02:38:00,
2013-10-09 19:39:00,49.6,44.4,29.47,WSW,238,0.0,0.0,82,0.00,,---,0.00,VWS V13.01,2013-10-10 02:39:00,
2013-10-09 19:40:00,49.6,44.4,29.47,WSW,238,0.0,0.0,82,0.00,,---,0.00,VWS V13.01,2013-10-10 02:40:00,
2013-10-09 19:41:00,49.6,44.4,29.47,WSW,238,0.0,0.0,82,0.00,,---,0.00,VWS V13.01,2013-10-10 02:41:00,
2013-10-09 19:43:00,49.5,44.2,29.47,WSW,238,0.0,0.0,82,0.00,,---,0.00,VWS V13.01,2013-10-10 02:43:00,
2013-10-09 19:44:00,49.5,44.2,29.47,WSW,238,0.0,0.0,82,0.00,,---,0.00,VWS V13.01,2013-10-10 02:44:00,
2013-10-09 19:45:00,49.5,44.2,29.47,WSW,238,0.0,0.0,82,0.00,,---,0.00,VWS V13.01,2013-10-10 02:45:00,
2013-10-09 19:46:00,49.3,44.0,29.47,WSW,238,0.0,0.0,82,0.00,,---,0.00,VWS V13.01,2013-10-10 02:46:00,
2013-10-09 19:48:00,49.3,44.0,29.47,WSW,238,0.0,0.0,82,0.00,,---,0.00,VWS V13.01,2013-10-10 02:48:00,
2013-10-09 19:49:00,49.3,44.0,29.47,WSW,238,0.0,0.0,82,0.00,,---,0.00,VWS V13.01,2013-10-10 02:49:00,
2013-10-09 19:50:00,49.1,43.8,29.47,WSW,238,0.0,0.0,82,0.00,,---,0.00,VWS V13.01,2013-10-10 02:50:00,
2013-10-09 19:51:00,49.1,43.8,29.47,WSW,238,0.0,0.0,82,0.00,,---,0.00,VWS V13.01,2013-10-10 02:51:00,
2013-10-09 19:53:00,48.9,43.7,29.47,WSW,238,0.0,0.0,82,0.00,,---,0.00,VWS V13.01,2013-10-10 02:53:00,
2013-10-09 19:54:00,48.9,43.7,29.47,WSW,238,0.0,0.0,82,0.00,,---,0.00,VWS V13.01,2013-10-10 02:54:00,
2013-10-09 19:55:00,48.7,43.5,29.47,WSW,238,0.0,0.0,82,0.00,,---,0.00,VWS V13.01,2013-10-10 02:55:00,
2013-10-09 19:56:00,48.7,43.5,29.47,WSW,238,0.0,0.0,82,0.00,,---,0.00,VWS V13.01,2013-10-10 02:56:00,
2013-10-09 19:58:00,48.9,44.0,29.47,WSW,238,0.0,0.0,83,0.00,,---,0.00,VWS V13.01,2013-10-10 02:58:00,
2013-10-09 19:59:00,48.9,44.0,29.47,WSW,238,0.0,0.0,83,0.00,,---,0.00,VWS V13.01,2013-10-10 02:59:00,
2013-10-09 20:00:00,48.7,43.8,29.47,WSW,238,0.0,0.0,83,0.00,,---,0.00,VWS V13.01,2013-10-10 03:00:00,
2013-10-09 20:01:00,48.7,43.8,29.47,WSW,238,0.0,0.0,83,0.00,,---,0.00,VWS V13.01,2013-10-10 03:01:00,
2013-10-09 20:04:00,48.7,43.8,29.47,WSW,238,0.0,0.0,83,0.00,,---,0.00,VWS V13.01,2013-10-10 03:04:00,
2013-10-09 20:05:00,48.7,43.8,29.47,WSW,238,0.0,0.0,83,0.00,,---,0.00,VWS V13.01,2013-10-10 03:05:00,
2013-10-09 20:06:00,48.7,43.8,29.47,WSW,238,0.0,0.0,83,0.00,,---,0.00,VWS V13.01,2013-10-10 03:06:00,
2013-10-09 20:09:00,48.6,43.6,29.47,WSW,238,0.0,0.0,83,0.00,,---,0.00,VWS V13.01,2013-10-10 03:09:00,
2013-10-09 20:10:00,48.6,43.6,29.47,WSW,238,0.0,0.0,83,0.00,,---,0.00,VWS V13.01,2013-10-10 03:10:00,
2013-10-09 20:11:00,48.6,43.6,29.47,WSW,238,0.0,0.0,83,0.00,,---,0.00,VWS V13.01,2013-10-10 03:11:00,
2013-10-09 20:14:00,48.4,43.5,29.47,WSW,238,0.0,0.0,83,0.00,,---,0.00,VWS V13.01,2013-10-10 03:14:00,
2013-10-09 20:15:00,48.4,43.5,29.47,WSW,238,0.0,0.0,83,0.00,,---,0.00,VWS V13.01,2013-10-10 03:15:00,
2013-10-09 20:16:00,48.4,43.5,29.47,WSW,238,0.0,0.0,83,0.00,,---,0.00,VWS V13.01,2013-10-10 03:16:00,
2013-10-09 20:19:00,48.4,43.8,29.47,WSW,238,0.0,0.0,84,0.00,,---,0.00,VWS V13.01,2013-10-10 03:19:00,
2013-10-09 20:20:00,48.4,43.8,29.47,WSW,238,0.0,0.0,84,0.00,,---,0.00,VWS V13.01,2013-10-10 03:20:00,
2013-10-09 20:21:00,48.4,43.8,29.47,WSW,238,0.0,0.0,84,0.00,,---,0.00,VWS V13.01,2013-10-10 03:21:00,
2013-10-09 20:24:00,48.4,43.8,29.47,WSW,238,0.0,0.0,84,0.00,,---,0.00,VWS V13.01,2013-10-10 03:24:00,
2013-10-09 20:25:00,48.4,43.8,29.47,WSW,238,0.0,0.0,84,0.00,,---,0.00,VWS V13.01,2013-10-10 03:25:00,
2013-10-09 20:26:00,48.6,44.0,29.47,WSW,238,0.0,0.0,84,0.00,,---,0.00,VWS V13.01,2013-10-10 03:26:00,
2013-10-09 20:29:00,48.7,44.1,29.47,WSW,238,0.0,0.0,84,0.00,,---,0.00,VWS V13.01,2013-10-10 03:29:00,
2013-10-09 20:30:00,48.7,44.1,29.47,WSW,238,0.0,0.0,84,0.00,,---,0.00,VWS V13.01,2013-10-10 03:30:00,
2013-10-09 20:31:00,48.7,44.1,29.47,WSW,238,0.0,0.0,84,0.00,,---,0.00,VWS V13.01,2013-10-10 03:31:00,
2013-10-09 20:34:00,48.7,44.1,29.47,WSW,238,0.0,0.0,84,0.00,,---,0.00,VWS V13.01,2013-10-10 03:34:00,
2013-10-09 20:35:00,48.7,44.1,29.47,WSW,238,0.0,0.0,84,0.00,,---,0.00,VWS V13.01,2013-10-10 03:35:00,
2013-10-09 20:36:00,48.7,44.1,29.47,WSW,238,0.0,0.0,84,0.00,,---,0.00,VWS V13.01,2013-10-10 03:36:00,
2013-10-09 20:37:00,48.6,44.0,29.47,WSW,238,0.0,0.0,84,0.00,,---,0.00,VWS V13.01,2013-10-10 03:37:00,
2013-10-09 20:39:00,48.6,44.0,29.47,WSW,238,0.0,0.0,84,0.00,,---,0.00,VWS V13.01,2013-10-10 03:39:00,
2013-10-09 20:40:00,48.4,43.8,29.47,WSW,238,0.0,0.0,84,0.00,,---,0.00,VWS V13.01,2013-10-10 03:40:00,
2013-10-09 20:41:00,48.4,43.8,29.47,WSW,238,0.0,0.0,84,0.00,,---,0.00,VWS V13.01,2013-10-10 03:41:00,
2013-10-09 20:42:00,48.4,43.8,29.47,WSW,238,0.0,0.0,84,0.00,,---,0.00,VWS V13.01,2013-10-10 03:42:00,
2013-10-09 20:44:00,48.2,43.6,29.47,WSW,238,0.0,0.0,84,0.00,,---,0.00,VWS V13.01,2013-10-10 03:44:00,
2013-10-09 20:45:00,48.2,43.6,29.47,WSW,238,0.0,0.0,84,0.00,,---,0.00,VWS V13.01,2013-10-10 03:45:00,
2013-10-09 20:46:00,48.2,43.6,29.47,WSW,238,0.0,0.0,84,0.00,,---,0.00,VWS V13.01,2013-10-10 03:46:00,
2013-10-09 20:47:00,48.2,43.6,29.47,WSW,238,0.0,0.0,84,0.00,,---,0.00,VWS V13.01,2013-10-10 03:47:00,
2013-10-09 20:49:00,48.2,43.6,29.47,WSW,238,0.0,0.0,84,0.00,,---,0.00,VWS V13.01,2013-10-10 03:49:00,
2013-10-09 20:50:00,48.2,43.6,29.47,WSW,238,0.0,0.0,84,0.00,,---,0.00,VWS V13.01,2013-10-10 03:50:00,
2013-10-09 20:51:00,48.2,43.6,29.47,WSW,238,0.0,0.0,84,0.00,,---,0.00,VWS V13.01,2013-10-10 03:51:00,
2013-10-09 20:52:00,48.2,43.6,29.47,WSW,238,0.0,0.0,84,0.00,,---,0.00,VWS V13.01,2013-10-10 03:52:00,
2013-10-09 20:54:00,48.2,43.6,29.47,WSW,238,0.0,0.0,84,0.00,,---,0.00,VWS V13.01,2013-10-10 03:54:00,
2013-10-09 20:55:00,48.2,43.9,29.47,WSW,238,0.0,0.0,85,0.00,,---,0.00,VWS V13.01,2013-10-10 03:55:00,
2013-10-09 20:56:00,48.4,44.1,29.47,WSW,238,0.0,0.0,85,0.00,,---,0.00,VWS V13.01,2013-10-10 03:56:00,
2013-10-09 20:57:00,48.4,44.1,29.47,WSW,238,0.0,0.0,85,0.00,,---,0.00,VWS V13.01,2013-10-10 03:57:00,
2013-10-09 20:59:00,48.2,43.9,29.47,WSW,238,0.0,0.0,85,0.00,,---,0.00,VWS V13.01,2013-10-10 03:59:00,
2013-10-09 21:01:00,48.2,43.9,29.47,WSW,238,0.0,0.0,85,0.00,,---,0.00,VWS V13.01,2013-10-10 04:01:00,
2013-10-09 21:02:00,48.2,43.9,29.47,WSW,238,0.0,0.0,85,0.00,,---,0.00,VWS V13.01,2013-10-10 04:02:00,
2013-10-09 21:06:00,48.2,43.9,29.47,WSW,238,0.0,0.0,85,0.00,,---,0.00,VWS V13.01,2013-10-10 04:06:00,
2013-10-09 21:07:00,48.2,43.9,29.47,WSW,238,0.0,0.0,85,0.00,,---,0.00,VWS V13.01,2013-10-10 04:07:00,
2013-10-09 21:11:00,48.4,44.1,29.47,WSW,238,0.0,0.0,85,0.00,,---,0.00,VWS V13.01,2013-10-10 04:11:00,
2013-10-09 21:12:00,48.4,44.1,29.47,WSW,238,0.0,0.0,85,0.00,,---,0.00,VWS V13.01,2013-10-10 04:12:00,
2013-10-09 21:16:00,48.2,44.2,29.47,WSW,238,0.0,0.0,86,0.00,,---,0.00,VWS V13.01,2013-10-10 04:16:00,
2013-10-09 21:17:00,48.2,44.2,29.44,WSW,238,0.0,0.0,86,0.00,,---,0.00,VWS V13.01,2013-10-10 04:17:00,
2013-10-09 21:21:00,48.2,44.2,29.44,WSW,238,0.0,0.0,86,0.00,,---,0.00,VWS V13.01,2013-10-10 04:21:00,
2013-10-09 21:22:00,48.2,44.2,29.44,WSW,238,0.0,0.0,86,0.00,,---,0.00,VWS V13.01,2013-10-10 04:22:00,
2013-10-09 21:23:00,48.2,44.2,29.44,WSW,238,0.0,0.0,86,0.00,,---,0.00,VWS V13.01,2013-10-10 04:23:00,
2013-10-09 21:26:00,48.2,44.2,29.44,WSW,238,0.0,0.0,86,0.00,,---,0.00,VWS V13.01,2013-10-10 04:26:00,
2013-10-09 21:27:00,48.2,44.2,29.44,WSW,238,0.0,0.0,86,0.00,,---,0.00,VWS V13.01,2013-10-10 04:27:00,
2013-10-09 21:28:00,48.2,44.2,29.44,WSW,238,0.0,0.0,86,0.00,,---,0.00,VWS V13.01,2013-10-10 04:28:00,
2013-10-09 21:31:00,48.2,44.2,29.47,WSW,238,0.0,0.0,86,0.00,,---,0.00,VWS V13.01,2013-10-10 04:31:00,
2013-10-09 21:32:00,48.2,44.2,29.47,WSW,238,0.0,0.0,86,0.00,,---,0.00,VWS V13.01,2013-10-10 04:32:00,
2013-10-09 21:33:00,48.2,44.2,29.47,WSW,238,0.0,0.0,86,0.00,,---,0.00,VWS V13.01,2013-10-10 04:33:00,
2013-10-09 21:36:00,48.0,44.3,29.47,WSW,238,0.0,0.0,87,0.00,,---,0.00,VWS V13.01,2013-10-10 04:36:00,
2013-10-09 21:37:00,48.0,44.3,29.47,WSW,238,0.0,0.0,87,0.00,,---,0.00,VWS V13.01,2013-10-10 04:37:00,
2013-10-09 21:38:00,48.0,44.3,29.47,WSW,238,0.0,0.0,87,0.00,,---,0.00,VWS V13.01,2013-10-10 04:38:00,
2013-10-09 21:41:00,48.0,44.3,29.47,WSW,238,0.0,0.0,87,0.00,,---,0.00,VWS V13.01,2013-10-10 04:41:00,
2013-10-09 21:42:00,48.0,44.3,29.47,WSW,238,0.0,0.0,87,0.00,,---,0.00,VWS V13.01,2013-10-10 04:42:00,
2013-10-09 21:43:00,48.0,44.3,29.47,WSW,238,0.0,0.0,87,0.00,,---,0.00,VWS V13.01,2013-10-10 04:43:00,
2013-10-09 21:44:00,48.0,44.3,29.47,WSW,238,0.0,0.0,87,0.00,,---,0.00,VWS V13.01,2013-10-10 04:44:00,
2013-10-09 21:46:00,48.0,44.3,29.47,WSW,238,0.0,0.0,87,0.00,,---,0.00,VWS V13.01,2013-10-10 04:46:00,
2013-10-09 21:47:00,48.0,44.3,29.47,WSW,238,0.0,0.0,87,0.00,,---,0.00,VWS V13.01,2013-10-10 04:47:00,
2013-10-09 21:48:00,48.0,44.3,29.47,WSW,238,0.0,0.0,87,0.00,,---,0.00,VWS V13.01,2013-10-10 04:48:00,
2013-10-09 21:49:00,48.0,44.3,29.47,WSW,238,0.0,0.0,87,0.00,,---,0.00,VWS V13.01,2013-10-10 04:49:00,
2013-10-09 21:51:00,48.0,44.3,29.47,WSW,238,0.0,0.0,87,0.00,,---,0.00,VWS V13.01,2013-10-10 04:51:00,
2013-10-09 21:52:00,48.0,44.3,29.47,WSW,238,0.0,0.0,87,0.00,,---,0.00,VWS V13.01,2013-10-10 04:52:00,
2013-10-09 21:53:00,48.0,44.3,29.47,WSW,238,0.0,0.0,87,0.00,,---,0.00,VWS V13.01,2013-10-10 04:53:00,
2013-10-09 21:54:00,48.0,44.3,29.47,WSW,238,0.0,0.0,87,0.00,,---,0.00,VWS V13.01,2013-10-10 04:54:00,
2013-10-09 21:57:00,48.0,44.3,29.47,WSW,238,0.0,0.0,87,0.00,,---,0.00,VWS V13.01,2013-10-10 04:57:00,
2013-10-09 21:58:00,48.2,44.5,29.47,WSW,238,0.0,0.0,87,0.00,,---,0.00,VWS V13.01,2013-10-10 04:58:00,
2013-10-09 21:59:00,48.2,44.5,29.47,WSW,238,0.0,0.0,87,0.00,,---,0.00,VWS V13.01,2013-10-10 04:59:00,
2013-10-09 22:02:00,48.2,44.5,29.47,WSW,238,0.0,0.0,87,0.00,,---,0.00,VWS V13.01,2013-10-10 05:02:00,
2013-10-09 22:03:00,48.2,44.5,29.47,WSW,238,0.0,0.0,87,0.00,,---,0.00,VWS V13.01,2013-10-10 05:03:00,
2013-10-09 22:04:00,48.2,44.5,29.47,WSW,238,0.0,0.0,87,0.00,,---,0.00,VWS V13.01,2013-10-10 05:04:00,
2013-10-09 22:07:00,48.4,44.7,29.47,WSW,238,0.0,0.0,87,0.00,,---,0.00,VWS V13.01,2013-10-10 05:07:00,
2013-10-09 22:09:00,48.4,44.7,29.47,WSW,238,0.0,0.0,87,0.00,,---,0.00,VWS V13.01,2013-10-10 05:09:00,
2013-10-09 22:12:00,48.2,44.5,29.47,WSW,238,0.0,0.0,87,0.00,,---,0.00,VWS V13.01,2013-10-10 05:12:00,
2013-10-09 22:14:00,48.2,44.5,29.47,WSW,238,0.0,0.0,87,0.00,,---,0.00,VWS V13.01,2013-10-10 05:14:00,
2013-10-09 22:15:00,48.2,44.5,29.47,WSW,238,0.0,0.0,87,0.00,,---,0.00,VWS V13.01,2013-10-10 05:15:00,
2013-10-09 22:17:00,48.2,44.8,29.47,WSW,238,0.0,0.0,88,0.00,,---,0.00,VWS V13.01,2013-10-10 05:17:00,
2013-10-09 22:19:00,48.2,44.8,29.47,WSW,238,0.0,0.0,88,0.00,,---,0.00,VWS V13.01,2013-10-10 05:19:00,
2013-10-09 22:20:00,48.2,44.8,29.47,WSW,238,0.0,0.0,88,0.00,,---,0.00,VWS V13.01,2013-10-10 05:20:00,
2013-10-09 22:22:00,48.4,44.7,29.47,WSW,238,0.0,0.0,87,0.00,,---,0.00,VWS V13.01,2013-10-10 05:22:00,
2013-10-09 22:25:00,48.4,44.7,29.47,WSW,238,0.0,0.0,87,0.00,,---,0.00,VWS V13.01,2013-10-10 05:25:00,
2013-10-09 22:26:00,48.4,44.7,29.47,WSW,238,0.0,0.0,87,0.00,,---,0.00,VWS V13.01,2013-10-10 05:26:00,
2013-10-09 22:27:00,48.4,44.7,29.47,WSW,238,0.0,0.0,87,0.00,,---,0.00,VWS V13.01,2013-10-10 05:27:00,
2013-10-09 22:28:00,48.4,44.7,29.47,WSW,238,0.0,0.0,87,0.00,,---,0.00,VWS V13.01,2013-10-10 05:28:00,
2013-10-09 22:30:00,48.4,44.7,29.47,WSW,238,0.0,0.0,87,0.00,,---,0.00,VWS V13.01,2013-10-10 05:30:00,
2013-10-09 22:31:00,48.4,44.7,29.47,WSW,238,0.0,0.0,87,0.00,,---,0.00,VWS V13.01,2013-10-10 05:31:00,
2013-10-09 22:32:00,48.4,44.7,29.47,WSW,238,0.0,0.0,87,0.00,,---,0.00,VWS V13.01,2013-10-10 05:32:00,
2013-10-09 22:33:00,48.4,44.7,29.47,WSW,238,0.0,0.0,87,0.00,,---,0.00,VWS V13.01,2013-10-10 05:33:00,
2013-10-09 22:36:00,48.4,45.0,29.47,WSW,238,0.0,0.0,88,0.00,,---,0.00,VWS V13.01,2013-10-10 05:36:00,
2013-10-09 22:37:00,48.4,45.0,29.47,WSW,238,0.0,0.0,88,0.00,,---,0.00,VWS V13.01,2013-10-10 05:37:00,
2013-10-09 22:38:00,48.4,45.0,29.47,WSW,238,0.0,0.0,88,0.00,,---,0.00,VWS V13.01,2013-10-10 05:38:00,
2013-10-09 22:41:00,48.4,45.0,29.47,WSW,238,0.0,0.0,88,0.00,,---,0.00,VWS V13.01,2013-10-10 05:41:00,
2013-10-09 22:43:00,48.4,45.0,29.47,WSW,238,0.0,0.0,88,0.00,,---,0.00,VWS V13.01,2013-10-10 05:43:00,
2013-10-09 22:46:00,48.6,44.9,29.47,WSW,238,0.0,0.0,87,0.00,,---,0.00,VWS V13.01,2013-10-10 05:46:00,
2013-10-09 22:48:00,48.6,44.9,29.44,WSW,238,0.0,0.0,87,0.00,,---,0.00,VWS V13.01,2013-10-10 05:48:00,
2013-10-09 22:51:00,48.6,44.9,29.44,WSW,238,0.0,0.0,87,0.00,,---,0.00,VWS V13.01,2013-10-10 05:51:00,
2013-10-09 22:53:00,48.6,44.9,29.44,WSW,238,0.0,0.0,87,0.00,,---,0.00,VWS V13.01,2013-10-10 05:53:00,
2013-10-09 22:57:00,48.4,45.0,29.44,WSW,238,0.0,0.0,88,0.00,,---,0.00,VWS V13.01,2013-10-10 05:57:00,
2013-10-09 22:58:00,48.2,44.8,29.44,WSW,238,0.0,0.0,88,0.00,,---,0.00,VWS V13.01,2013-10-10 05:58:00,
2013-10-09 22:59:00,48.2,44.8,29.44,WSW,238,0.0,0.0,88,0.00,,---,0.00,VWS V13.01,2013-10-10 05:59:00,
2013-10-09 23:03:00,48.2,44.8,29.44,WSW,238,0.0,0.0,88,0.00,,---,0.00,VWS V13.01,2013-10-10 06:03:00,
2013-10-09 23:04:00,48.2,44.8,29.44,WSW,238,0.0,0.0,88,0.00,,---,0.00,VWS V13.01,2013-10-10 06:04:00,
2013-10-09 23:08:00,48.4,45.0,29.44,WSW,238,0.0,0.0,88,0.00,,---,0.00,VWS V13.01,2013-10-10 06:08:00,
2013-10-09 23:09:00,48.4,45.0,29.44,WSW,238,0.0,0.0,88,0.00,,---,0.00,VWS V13.01,2013-10-10 06:09:00,
2013-10-09 23:10:00,48.4,45.0,29.44,WSW,238,0.0,0.0,88,0.00,,---,0.00,VWS V13.01,2013-10-10 06:10:00,
2013-10-09 23:13:00,48.2,44.8,29.44,WSW,238,0.0,0.0,88,0.00,,---,0.00,VWS V13.01,2013-10-10 06:13:00,
2013-10-09 23:14:00,48.2,44.8,29.44,WSW,238,0.0,0.0,88,0.00,,---,0.00,VWS V13.01,2013-10-10 06:14:00,
2013-10-09 23:15:00,48.2,44.8,29.44,WSW,238,0.0,0.0,88,0.00,,---,0.00,VWS V13.01,2013-10-10 06:15:00,
2013-10-09 23:18:00,48.2,44.8,29.44,WSW,238,0.0,0.0,88,0.00,,---,0.00,VWS V13.01,2013-10-10 06:18:00,
2013-10-09 23:19:00,48.2,44.8,29.44,WSW,238,0.0,0.0,88,0.00,,---,0.00,VWS V13.01,2013-10-10 06:19:00,
2013-10-09 23:20:00,48.0,44.6,29.44,WSW,238,0.0,0.0,88,0.00,,---,0.00,VWS V13.01,2013-10-10 06:20:00,
2013-10-09 23:24:00,48.0,44.6,29.44,WSW,238,0.0,0.0,88,0.00,,---,0.00,VWS V13.01,2013-10-10 06:24:00,
2013-10-09 23:25:00,48.0,44.6,29.44,WSW,238,0.0,0.0,88,0.00,,---,0.00,VWS V13.01,2013-10-10 06:25:00,
2013-10-09 23:29:00,47.7,44.6,29.44,WSW,238,0.0,0.0,89,0.00,,---,0.00,VWS V13.01,2013-10-10 06:29:00,
2013-10-09 23:30:00,47.7,44.6,29.44,WSW,238,0.0,0.0,89,0.00,,---,0.00,VWS V13.01,2013-10-10 06:30:00,
2013-10-09 23:34:00,47.7,44.6,29.44,WSW,238,0.0,0.0,89,0.00,,---,0.00,VWS V13.01,2013-10-10 06:34:00,
2013-10-09 23:35:00,47.7,44.6,29.44,WSW,238,0.0,0.0,89,0.00,,---,0.00,VWS V13.01,2013-10-10 06:35:00,
2013-10-09 23:36:00,47.7,44.6,29.44,WSW,238,0.0,0.0,89,0.00,,---,0.00,VWS V13.01,2013-10-10 06:36:00,
2013-10-09 23:39:00,47.7,44.6,29.44,WSW,238,0.0,0.0,89,0.00,,---,0.00,VWS V13.01,2013-10-10 06:39:00,
2013-10-09 23:40:00,47.7,44.6,29.44,WSW,238,0.0,0.0,89,0.00,,---,0.00,VWS V13.01,2013-10-10 06:40:00,
2013-10-09 23:41:00,47.7,44.6,29.44,WSW,238,0.0,0.0,89,0.00,,---,0.00,VWS V13.01,2013-10-10 06:41:00,
2013-10-09 23:44:00,47.7,44.6,29.44,WSW,238,0.0,0.0,89,0.00,,---,0.00,VWS V13.01,2013-10-10 06:44:00,
2013-10-09 23:45:00,47.7,44.6,29.44,WSW,238,0.0,0.0,89,0.00,,---,0.00,VWS V13.01,2013-10-10 06:45:00,
2013-10-09 23:46:00,47.7,44.6,29.44,WSW,238,0.0,0.0,89,0.00,,---,0.00,VWS V13.01,2013-10-10 06:46:00,
2013-10-09 23:49:00,47.5,44.4,29.44,WSW,238,0.0,0.0,89,0.00,,---,0.00,VWS V13.01,2013-10-10 06:49:00,
2013-10-09 23:50:00,47.5,44.4,29.44,WSW,238,0.0,0.0,89,0.00,,---,0.00,VWS V13.01,2013-10-10 06:50:00,
2013-10-09 23:51:00,47.5,44.4,29.44,WSW,238,0.0,0.0,89,0.00,,---,0.00,VWS V13.01,2013-10-10 06:51:00,
2013-10-09 23:54:00,47.3,44.5,29.44,WSW,238,0.0,0.0,90,0.00,,---,0.00,VWS V13.01,2013-10-10 06:54:00,
2013-10-09 23:55:00,47.3,44.5,29.44,WSW,238,0.0,0.0,90,0.00,,---,0.00,VWS V13.01,2013-10-10 06:55:00,
2013-10-09 23:56:00,47.3,44.5,29.44,WSW,238,0.0,0.0,90,0.00,,---,0.00,VWS V13.01,2013-10-10 06:56:00,
2013-10-09 23:59:00,47.3,44.5,29.44,WSW,238,0.0,0.0,90,0.00,,---,0.00,VWS V13.01,2013-10-10 06:59:00,